<?xml version="1.0" encoding="UTF-8" standalone="no" ?>
<gpx xmlns="http://www.topografix.com/GPX/1/1" xmlns:xsi="http://www.w3.org/2001/XMLSchema-instance" xsi:schemaLocation="http://www.topografix.com/GPX/1/1 http://www.topografix.com/GPX/1/1/gpx.xsd" version="1.1" creator="VisuGPX - https://www.visugpx.com">
  <metadata>
    <name>Autour de Bully</name>
    <desc><![CDATA[MN boucle autour de Bully depuis St Germain]]></desc>
  </metadata>
  <trk>
    <name><![CDATA[11964472-Olive6974 - Bully (69) (31-08-2020)]]></name>
    <trkseg>
      <trkpt lat="45.85277" lon="4.58411">
        <ele>345</ele>
        <time>2020-09-18T10:11:25Z</time>
      </trkpt>
      <trkpt lat="45.8528" lon="4.58398">
        <ele>345</ele>
        <time>2020-09-18T10:11:27Z</time>
      </trkpt>
      <trkpt lat="45.85275" lon="4.58388">
        <ele>345</ele>
        <time>2020-09-18T10:11:29Z</time>
      </trkpt>
      <trkpt lat="45.85269" lon="4.58397">
        <ele>345</ele>
        <time>2020-09-18T10:11:31Z</time>
      </trkpt>
      <trkpt lat="45.85277" lon="4.5842">
        <ele>345</ele>
        <time>2020-09-18T10:11:35Z</time>
      </trkpt>
      <trkpt lat="45.85301" lon="4.58452">
        <ele>344</ele>
        <time>2020-09-18T10:11:43Z</time>
      </trkpt>
      <trkpt lat="45.85362" lon="4.58615">
        <ele>339</ele>
        <time>2020-09-18T10:12:13Z</time>
      </trkpt>
      <trkpt lat="45.85424" lon="4.58742">
        <ele>330</ele>
        <time>2020-09-18T10:12:38Z</time>
      </trkpt>
      <trkpt lat="45.85437" lon="4.58784">
        <ele>324</ele>
        <time>2020-09-18T10:12:46Z</time>
      </trkpt>
      <trkpt lat="45.85448" lon="4.58801">
        <ele>324</ele>
        <time>2020-09-18T10:12:50Z</time>
      </trkpt>
      <trkpt lat="45.8545" lon="4.58795">
        <ele>325</ele>
        <time>2020-09-18T10:12:51Z</time>
      </trkpt>
      <trkpt lat="45.85447" lon="4.58777">
        <ele>329</ele>
        <time>2020-09-18T10:12:54Z</time>
      </trkpt>
      <trkpt lat="45.85436" lon="4.58758">
        <ele>330</ele>
        <time>2020-09-18T10:12:58Z</time>
      </trkpt>
      <trkpt lat="45.85438" lon="4.58809">
        <ele>319</ele>
        <time>2020-09-18T10:13:06Z</time>
      </trkpt>
      <trkpt lat="45.85418" lon="4.58927">
        <ele>303</ele>
        <time>2020-09-18T10:13:26Z</time>
      </trkpt>
      <trkpt lat="45.854" lon="4.5898">
        <ele>298</ele>
        <time>2020-09-18T10:13:35Z</time>
      </trkpt>
      <trkpt lat="45.85387" lon="4.58995">
        <ele>297</ele>
        <time>2020-09-18T10:13:39Z</time>
      </trkpt>
      <trkpt lat="45.85367" lon="4.59048">
        <ele>295</ele>
        <time>2020-09-18T10:13:49Z</time>
      </trkpt>
      <trkpt lat="45.85323" lon="4.59125">
        <ele>289</ele>
        <time>2020-09-18T10:14:05Z</time>
      </trkpt>
      <trkpt lat="45.85274" lon="4.59194">
        <ele>282</ele>
        <time>2020-09-18T10:14:21Z</time>
      </trkpt>
      <trkpt lat="45.85234" lon="4.59243">
        <ele>276</ele>
        <time>2020-09-18T10:14:34Z</time>
      </trkpt>
      <trkpt lat="45.85192" lon="4.59282">
        <ele>273</ele>
        <time>2020-09-18T10:14:45Z</time>
      </trkpt>
      <trkpt lat="45.85175" lon="4.59305">
        <ele>272</ele>
        <time>2020-09-18T10:14:51Z</time>
      </trkpt>
      <trkpt lat="45.85147" lon="4.59393">
        <ele>273</ele>
        <time>2020-09-18T10:15:07Z</time>
      </trkpt>
      <trkpt lat="45.85155" lon="4.59418">
        <ele>273</ele>
        <time>2020-09-18T10:15:11Z</time>
      </trkpt>
      <trkpt lat="45.85167" lon="4.59429">
        <ele>274</ele>
        <time>2020-09-18T10:15:14Z</time>
      </trkpt>
      <trkpt lat="45.85269" lon="4.59478">
        <ele>280</ele>
        <time>2020-09-18T10:15:39Z</time>
      </trkpt>
      <trkpt lat="45.8532" lon="4.59475">
        <ele>281</ele>
        <time>2020-09-18T10:15:51Z</time>
      </trkpt>
      <trkpt lat="45.85341" lon="4.59483">
        <ele>282</ele>
        <time>2020-09-18T10:15:56Z</time>
      </trkpt>
      <trkpt lat="45.8538" lon="4.59511">
        <ele>284</ele>
        <time>2020-09-18T10:16:07Z</time>
      </trkpt>
      <trkpt lat="45.85435" lon="4.59563">
        <ele>286</ele>
        <time>2020-09-18T10:16:22Z</time>
      </trkpt>
      <trkpt lat="45.85483" lon="4.59588">
        <ele>286</ele>
        <time>2020-09-18T10:16:34Z</time>
      </trkpt>
      <trkpt lat="45.85495" lon="4.59641">
        <ele>290</ele>
        <time>2020-09-18T10:16:43Z</time>
      </trkpt>
      <trkpt lat="45.85511" lon="4.59666">
        <ele>292</ele>
        <time>2020-09-18T10:16:48Z</time>
      </trkpt>
      <trkpt lat="45.85517" lon="4.59684">
        <ele>293</ele>
        <time>2020-09-18T10:16:52Z</time>
      </trkpt>
      <trkpt lat="45.85517" lon="4.59797">
        <ele>300</ele>
        <time>2020-09-18T10:17:10Z</time>
      </trkpt>
      <trkpt lat="45.85511" lon="4.59805">
        <ele>300</ele>
        <time>2020-09-18T10:17:12Z</time>
      </trkpt>
      <trkpt lat="45.85499" lon="4.59808">
        <ele>300</ele>
        <time>2020-09-18T10:17:15Z</time>
      </trkpt>
      <trkpt lat="45.8548" lon="4.598">
        <ele>299</ele>
        <time>2020-09-18T10:17:19Z</time>
      </trkpt>
      <trkpt lat="45.85445" lon="4.59793">
        <ele>299</ele>
        <time>2020-09-18T10:17:28Z</time>
      </trkpt>
      <trkpt lat="45.85385" lon="4.59792">
        <ele>298</ele>
        <time>2020-09-18T10:17:42Z</time>
      </trkpt>
      <trkpt lat="45.85352" lon="4.59805">
        <ele>298</ele>
        <time>2020-09-18T10:17:50Z</time>
      </trkpt>
      <trkpt lat="45.85316" lon="4.59833">
        <ele>298</ele>
        <time>2020-09-18T10:17:59Z</time>
      </trkpt>
      <trkpt lat="45.85309" lon="4.59967">
        <ele>298</ele>
        <time>2020-09-18T10:18:21Z</time>
      </trkpt>
      <trkpt lat="45.85312" lon="4.60029">
        <ele>296</ele>
        <time>2020-09-18T10:18:31Z</time>
      </trkpt>
      <trkpt lat="45.85305" lon="4.60084">
        <ele>295</ele>
        <time>2020-09-18T10:18:40Z</time>
      </trkpt>
      <trkpt lat="45.85294" lon="4.60113">
        <ele>295</ele>
        <time>2020-09-18T10:18:46Z</time>
      </trkpt>
      <trkpt lat="45.85274" lon="4.60142">
        <ele>295</ele>
        <time>2020-09-18T10:18:52Z</time>
      </trkpt>
      <trkpt lat="45.85259" lon="4.60174">
        <ele>294</ele>
        <time>2020-09-18T10:18:59Z</time>
      </trkpt>
      <trkpt lat="45.85225" lon="4.60259">
        <ele>290</ele>
        <time>2020-09-18T10:19:15Z</time>
      </trkpt>
      <trkpt lat="45.852" lon="4.60335">
        <ele>290</ele>
        <time>2020-09-18T10:19:28Z</time>
      </trkpt>
      <trkpt lat="45.85204" lon="4.60343">
        <ele>290</ele>
        <time>2020-09-18T10:19:30Z</time>
      </trkpt>
      <trkpt lat="45.85282" lon="4.60365">
        <ele>293</ele>
        <time>2020-09-18T10:19:48Z</time>
      </trkpt>
      <trkpt lat="45.8532" lon="4.60383">
        <ele>294</ele>
        <time>2020-09-18T10:19:58Z</time>
      </trkpt>
      <trkpt lat="45.85376" lon="4.60389">
        <ele>297</ele>
        <time>2020-09-18T10:20:11Z</time>
      </trkpt>
      <trkpt lat="45.85435" lon="4.60401">
        <ele>302</ele>
        <time>2020-09-18T10:20:25Z</time>
      </trkpt>
      <trkpt lat="45.85465" lon="4.60413">
        <ele>305</ele>
        <time>2020-09-18T10:20:32Z</time>
      </trkpt>
      <trkpt lat="45.85471" lon="4.60424">
        <ele>306</ele>
        <time>2020-09-18T10:20:34Z</time>
      </trkpt>
      <trkpt lat="45.85431" lon="4.60644">
        <ele>306</ele>
        <time>2020-09-18T10:21:11Z</time>
      </trkpt>
      <trkpt lat="45.85423" lon="4.60668">
        <ele>306</ele>
        <time>2020-09-18T10:21:16Z</time>
      </trkpt>
      <trkpt lat="45.85392" lon="4.6073">
        <ele>305</ele>
        <time>2020-09-18T10:21:28Z</time>
      </trkpt>
      <trkpt lat="45.85365" lon="4.60802">
        <ele>307</ele>
        <time>2020-09-18T10:21:41Z</time>
      </trkpt>
      <trkpt lat="45.85346" lon="4.60838">
        <ele>307</ele>
        <time>2020-09-18T10:21:49Z</time>
      </trkpt>
      <trkpt lat="45.85309" lon="4.60955">
        <ele>307</ele>
        <time>2020-09-18T10:22:10Z</time>
      </trkpt>
      <trkpt lat="45.85286" lon="4.61046">
        <ele>306</ele>
        <time>2020-09-18T10:22:25Z</time>
      </trkpt>
      <trkpt lat="45.85281" lon="4.61053">
        <ele>306</ele>
        <time>2020-09-18T10:22:27Z</time>
      </trkpt>
      <trkpt lat="45.85227" lon="4.61083">
        <ele>301</ele>
        <time>2020-09-18T10:22:41Z</time>
      </trkpt>
      <trkpt lat="45.85224" lon="4.61094">
        <ele>301</ele>
        <time>2020-09-18T10:22:42Z</time>
      </trkpt>
      <trkpt lat="45.85227" lon="4.61111">
        <ele>301</ele>
        <time>2020-09-18T10:22:45Z</time>
      </trkpt>
      <trkpt lat="45.85243" lon="4.61141">
        <ele>302</ele>
        <time>2020-09-18T10:22:51Z</time>
      </trkpt>
      <trkpt lat="45.85284" lon="4.61181">
        <ele>303</ele>
        <time>2020-09-18T10:23:03Z</time>
      </trkpt>
      <trkpt lat="45.85343" lon="4.61217">
        <ele>303</ele>
        <time>2020-09-18T10:23:18Z</time>
      </trkpt>
      <trkpt lat="45.85389" lon="4.61253">
        <ele>301</ele>
        <time>2020-09-18T10:23:30Z</time>
      </trkpt>
      <trkpt lat="45.85459" lon="4.61297">
        <ele>301</ele>
        <time>2020-09-18T10:23:48Z</time>
      </trkpt>
      <trkpt lat="45.85514" lon="4.61319">
        <ele>303</ele>
        <time>2020-09-18T10:24:01Z</time>
      </trkpt>
      <trkpt lat="45.85692" lon="4.61365">
        <ele>299</ele>
        <time>2020-09-18T10:24:44Z</time>
      </trkpt>
      <trkpt lat="45.85715" lon="4.61376">
        <ele>299</ele>
        <time>2020-09-18T10:24:49Z</time>
      </trkpt>
      <trkpt lat="45.85728" lon="4.61395">
        <ele>298</ele>
        <time>2020-09-18T10:24:54Z</time>
      </trkpt>
      <trkpt lat="45.85747" lon="4.6145">
        <ele>298</ele>
        <time>2020-09-18T10:25:04Z</time>
      </trkpt>
      <trkpt lat="45.85768" lon="4.61492">
        <ele>301</ele>
        <time>2020-09-18T10:25:12Z</time>
      </trkpt>
      <trkpt lat="45.85792" lon="4.61506">
        <ele>305</ele>
        <time>2020-09-18T10:25:18Z</time>
      </trkpt>
      <trkpt lat="45.85809" lon="4.61524">
        <ele>308</ele>
        <time>2020-09-18T10:25:23Z</time>
      </trkpt>
      <trkpt lat="45.85855" lon="4.61535">
        <ele>312</ele>
        <time>2020-09-18T10:25:34Z</time>
      </trkpt>
      <trkpt lat="45.85866" lon="4.6154">
        <ele>312</ele>
        <time>2020-09-18T10:25:37Z</time>
      </trkpt>
      <trkpt lat="45.85878" lon="4.61553">
        <ele>313</ele>
        <time>2020-09-18T10:25:40Z</time>
      </trkpt>
      <trkpt lat="45.85869" lon="4.61603">
        <ele>312</ele>
        <time>2020-09-18T10:25:49Z</time>
      </trkpt>
      <trkpt lat="45.85853" lon="4.6165">
        <ele>311</ele>
        <time>2020-09-18T10:25:57Z</time>
      </trkpt>
      <trkpt lat="45.85838" lon="4.61713">
        <ele>308</ele>
        <time>2020-09-18T10:26:08Z</time>
      </trkpt>
      <trkpt lat="45.85784" lon="4.619">
        <ele>305</ele>
        <time>2020-09-18T10:26:41Z</time>
      </trkpt>
      <trkpt lat="45.85768" lon="4.61928">
        <ele>305</ele>
        <time>2020-09-18T10:26:47Z</time>
      </trkpt>
      <trkpt lat="45.85769" lon="4.61936">
        <ele>305</ele>
        <time>2020-09-18T10:26:48Z</time>
      </trkpt>
      <trkpt lat="45.85771" lon="4.61941">
        <ele>304</ele>
        <time>2020-09-18T10:26:49Z</time>
      </trkpt>
      <trkpt lat="45.85798" lon="4.61959">
        <ele>304</ele>
        <time>2020-09-18T10:26:56Z</time>
      </trkpt>
      <trkpt lat="45.85857" lon="4.61988">
        <ele>304</ele>
        <time>2020-09-18T10:27:10Z</time>
      </trkpt>
      <trkpt lat="45.85888" lon="4.61995">
        <ele>303</ele>
        <time>2020-09-18T10:27:18Z</time>
      </trkpt>
      <trkpt lat="45.85949" lon="4.61994">
        <ele>305</ele>
        <time>2020-09-18T10:27:32Z</time>
      </trkpt>
      <trkpt lat="45.85961" lon="4.61997">
        <ele>306</ele>
        <time>2020-09-18T10:27:35Z</time>
      </trkpt>
      <trkpt lat="45.85985" lon="4.62048">
        <ele>306</ele>
        <time>2020-09-18T10:27:45Z</time>
      </trkpt>
      <trkpt lat="45.86012" lon="4.62159">
        <ele>309</ele>
        <time>2020-09-18T10:28:04Z</time>
      </trkpt>
      <trkpt lat="45.8604" lon="4.6219">
        <ele>311</ele>
        <time>2020-09-18T10:28:12Z</time>
      </trkpt>
      <trkpt lat="45.86105" lon="4.62246">
        <ele>317</ele>
        <time>2020-09-18T10:28:30Z</time>
      </trkpt>
      <trkpt lat="45.86115" lon="4.62241">
        <ele>317</ele>
        <time>2020-09-18T10:28:32Z</time>
      </trkpt>
      <trkpt lat="45.86151" lon="4.62169">
        <ele>318</ele>
        <time>2020-09-18T10:28:47Z</time>
      </trkpt>
      <trkpt lat="45.86167" lon="4.62156">
        <ele>319</ele>
        <time>2020-09-18T10:28:51Z</time>
      </trkpt>
      <trkpt lat="45.86194" lon="4.62121">
        <ele>318</ele>
        <time>2020-09-18T10:29:00Z</time>
      </trkpt>
      <trkpt lat="45.86219" lon="4.6214">
        <ele>317</ele>
        <time>2020-09-18T10:29:06Z</time>
      </trkpt>
      <trkpt lat="45.86232" lon="4.62142">
        <ele>316</ele>
        <time>2020-09-18T10:29:09Z</time>
      </trkpt>
      <trkpt lat="45.86266" lon="4.62159">
        <ele>313</ele>
        <time>2020-09-18T10:29:18Z</time>
      </trkpt>
      <trkpt lat="45.86299" lon="4.62139">
        <ele>313</ele>
        <time>2020-09-18T10:29:26Z</time>
      </trkpt>
      <trkpt lat="45.86322" lon="4.62118">
        <ele>314</ele>
        <time>2020-09-18T10:29:32Z</time>
      </trkpt>
      <trkpt lat="45.86339" lon="4.62096">
        <ele>316</ele>
        <time>2020-09-18T10:29:38Z</time>
      </trkpt>
      <trkpt lat="45.86409" lon="4.6204">
        <ele>318</ele>
        <time>2020-09-18T10:29:56Z</time>
      </trkpt>
      <trkpt lat="45.86433" lon="4.62016">
        <ele>319</ele>
        <time>2020-09-18T10:30:03Z</time>
      </trkpt>
      <trkpt lat="45.86456" lon="4.61989">
        <ele>318</ele>
        <time>2020-09-18T10:30:10Z</time>
      </trkpt>
      <trkpt lat="45.865" lon="4.61925">
        <ele>318</ele>
        <time>2020-09-18T10:30:25Z</time>
      </trkpt>
      <trkpt lat="45.86607" lon="4.61952">
        <ele>313</ele>
        <time>2020-09-18T10:30:50Z</time>
      </trkpt>
      <trkpt lat="45.86615" lon="4.61953">
        <ele>313</ele>
        <time>2020-09-18T10:30:52Z</time>
      </trkpt>
      <trkpt lat="45.86621" lon="4.61949">
        <ele>313</ele>
        <time>2020-09-18T10:30:54Z</time>
      </trkpt>
      <trkpt lat="45.86625" lon="4.61942">
        <ele>314</ele>
        <time>2020-09-18T10:30:55Z</time>
      </trkpt>
      <trkpt lat="45.86644" lon="4.6178">
        <ele>318</ele>
        <time>2020-09-18T10:31:22Z</time>
      </trkpt>
      <trkpt lat="45.86661" lon="4.61739">
        <ele>320</ele>
        <time>2020-09-18T10:31:30Z</time>
      </trkpt>
      <trkpt lat="45.86651" lon="4.61659">
        <ele>325</ele>
        <time>2020-09-18T10:31:43Z</time>
      </trkpt>
      <trkpt lat="45.86653" lon="4.61653">
        <ele>326</ele>
        <time>2020-09-18T10:31:44Z</time>
      </trkpt>
      <trkpt lat="45.86783" lon="4.61693">
        <ele>325</ele>
        <time>2020-09-18T10:32:15Z</time>
      </trkpt>
      <trkpt lat="45.86795" lon="4.6171">
        <ele>324</ele>
        <time>2020-09-18T10:32:19Z</time>
      </trkpt>
      <trkpt lat="45.86803" lon="4.61714">
        <ele>324</ele>
        <time>2020-09-18T10:32:21Z</time>
      </trkpt>
      <trkpt lat="45.86885" lon="4.61719">
        <ele>331</ele>
        <time>2020-09-18T10:32:40Z</time>
      </trkpt>
      <trkpt lat="45.86893" lon="4.61723">
        <ele>332</ele>
        <time>2020-09-18T10:32:42Z</time>
      </trkpt>
      <trkpt lat="45.86902" lon="4.61719">
        <ele>333</ele>
        <time>2020-09-18T10:32:44Z</time>
      </trkpt>
      <trkpt lat="45.86913" lon="4.61686">
        <ele>336</ele>
        <time>2020-09-18T10:32:50Z</time>
      </trkpt>
      <trkpt lat="45.86924" lon="4.61604">
        <ele>345</ele>
        <time>2020-09-18T10:33:04Z</time>
      </trkpt>
      <trkpt lat="45.86915" lon="4.61596">
        <ele>345</ele>
        <time>2020-09-18T10:33:06Z</time>
      </trkpt>
      <trkpt lat="45.86877" lon="4.61586">
        <ele>342</ele>
        <time>2020-09-18T10:33:15Z</time>
      </trkpt>
      <trkpt lat="45.86868" lon="4.6157">
        <ele>342</ele>
        <time>2020-09-18T10:33:19Z</time>
      </trkpt>
      <trkpt lat="45.86883" lon="4.6151">
        <ele>346</ele>
        <time>2020-09-18T10:33:29Z</time>
      </trkpt>
      <trkpt lat="45.86901" lon="4.61491">
        <ele>349</ele>
        <time>2020-09-18T10:33:34Z</time>
      </trkpt>
      <trkpt lat="45.86904" lon="4.61476">
        <ele>350</ele>
        <time>2020-09-18T10:33:37Z</time>
      </trkpt>
      <trkpt lat="45.86896" lon="4.61435">
        <ele>352</ele>
        <time>2020-09-18T10:33:44Z</time>
      </trkpt>
      <trkpt lat="45.8695" lon="4.61475">
        <ele>355</ele>
        <time>2020-09-18T10:33:58Z</time>
      </trkpt>
      <trkpt lat="45.86965" lon="4.61501">
        <ele>355</ele>
        <time>2020-09-18T10:34:03Z</time>
      </trkpt>
      <trkpt lat="45.8698" lon="4.61516">
        <ele>356</ele>
        <time>2020-09-18T10:34:08Z</time>
      </trkpt>
      <trkpt lat="45.87119" lon="4.61592">
        <ele>353</ele>
        <time>2020-09-18T10:34:42Z</time>
      </trkpt>
      <trkpt lat="45.87141" lon="4.61599">
        <ele>354</ele>
        <time>2020-09-18T10:34:48Z</time>
      </trkpt>
      <trkpt lat="45.8719" lon="4.61635">
        <ele>357</ele>
        <time>2020-09-18T10:35:00Z</time>
      </trkpt>
      <trkpt lat="45.87226" lon="4.61675">
        <ele>359</ele>
        <time>2020-09-18T10:35:11Z</time>
      </trkpt>
      <trkpt lat="45.8723" lon="4.61699">
        <ele>359</ele>
        <time>2020-09-18T10:35:15Z</time>
      </trkpt>
      <trkpt lat="45.87223" lon="4.61717">
        <ele>359</ele>
        <time>2020-09-18T10:35:18Z</time>
      </trkpt>
      <trkpt lat="45.87229" lon="4.61729">
        <ele>359</ele>
        <time>2020-09-18T10:35:21Z</time>
      </trkpt>
      <trkpt lat="45.87256" lon="4.61758">
        <ele>360</ele>
        <time>2020-09-18T10:35:29Z</time>
      </trkpt>
      <trkpt lat="45.87284" lon="4.6177">
        <ele>363</ele>
        <time>2020-09-18T10:35:36Z</time>
      </trkpt>
      <trkpt lat="45.87311" lon="4.61791">
        <ele>366</ele>
        <time>2020-09-18T10:35:43Z</time>
      </trkpt>
      <trkpt lat="45.87355" lon="4.61798">
        <ele>367</ele>
        <time>2020-09-18T10:35:53Z</time>
      </trkpt>
      <trkpt lat="45.87382" lon="4.61786">
        <ele>366</ele>
        <time>2020-09-18T10:36:00Z</time>
      </trkpt>
      <trkpt lat="45.87389" lon="4.61788">
        <ele>366</ele>
        <time>2020-09-18T10:36:01Z</time>
      </trkpt>
      <trkpt lat="45.87416" lon="4.61781">
        <ele>366</ele>
        <time>2020-09-18T10:36:08Z</time>
      </trkpt>
      <trkpt lat="45.87442" lon="4.61769">
        <ele>364</ele>
        <time>2020-09-18T10:36:14Z</time>
      </trkpt>
      <trkpt lat="45.87456" lon="4.61767">
        <ele>364</ele>
        <time>2020-09-18T10:36:17Z</time>
      </trkpt>
      <trkpt lat="45.87473" lon="4.61773">
        <ele>364</ele>
        <time>2020-09-18T10:36:21Z</time>
      </trkpt>
      <trkpt lat="45.87423" lon="4.61641">
        <ele>368</ele>
        <time>2020-09-18T10:36:46Z</time>
      </trkpt>
      <trkpt lat="45.87398" lon="4.61548">
        <ele>375</ele>
        <time>2020-09-18T10:37:02Z</time>
      </trkpt>
      <trkpt lat="45.8738" lon="4.6151">
        <ele>376</ele>
        <time>2020-09-18T10:37:10Z</time>
      </trkpt>
      <trkpt lat="45.8736" lon="4.61485">
        <ele>377</ele>
        <time>2020-09-18T10:37:16Z</time>
      </trkpt>
      <trkpt lat="45.87342" lon="4.61471">
        <ele>377</ele>
        <time>2020-09-18T10:37:21Z</time>
      </trkpt>
      <trkpt lat="45.87308" lon="4.61421">
        <ele>376</ele>
        <time>2020-09-18T10:37:32Z</time>
      </trkpt>
      <trkpt lat="45.873" lon="4.6136">
        <ele>376</ele>
        <time>2020-09-18T10:37:42Z</time>
      </trkpt>
      <trkpt lat="45.87305" lon="4.61306">
        <ele>378</ele>
        <time>2020-09-18T10:37:51Z</time>
      </trkpt>
      <trkpt lat="45.87311" lon="4.61308">
        <ele>379</ele>
        <time>2020-09-18T10:37:52Z</time>
      </trkpt>
      <trkpt lat="45.87331" lon="4.61331">
        <ele>380</ele>
        <time>2020-09-18T10:37:58Z</time>
      </trkpt>
      <trkpt lat="45.8737" lon="4.61355">
        <ele>382</ele>
        <time>2020-09-18T10:38:08Z</time>
      </trkpt>
      <trkpt lat="45.87387" lon="4.61373">
        <ele>381</ele>
        <time>2020-09-18T10:38:13Z</time>
      </trkpt>
      <trkpt lat="45.87397" lon="4.61375">
        <ele>382</ele>
        <time>2020-09-18T10:38:15Z</time>
      </trkpt>
      <trkpt lat="45.87456" lon="4.61328">
        <ele>389</ele>
        <time>2020-09-18T10:38:31Z</time>
      </trkpt>
      <trkpt lat="45.87497" lon="4.61305">
        <ele>394</ele>
        <time>2020-09-18T10:38:42Z</time>
      </trkpt>
      <trkpt lat="45.8753" lon="4.61277">
        <ele>398</ele>
        <time>2020-09-18T10:38:50Z</time>
      </trkpt>
      <trkpt lat="45.8755" lon="4.61268">
        <ele>400</ele>
        <time>2020-09-18T10:38:55Z</time>
      </trkpt>
      <trkpt lat="45.87548" lon="4.61253">
        <ele>402</ele>
        <time>2020-09-18T10:38:58Z</time>
      </trkpt>
      <trkpt lat="45.87502" lon="4.61188">
        <ele>404</ele>
        <time>2020-09-18T10:39:13Z</time>
      </trkpt>
      <trkpt lat="45.87489" lon="4.61151">
        <ele>404</ele>
        <time>2020-09-18T10:39:20Z</time>
      </trkpt>
      <trkpt lat="45.87493" lon="4.61108">
        <ele>405</ele>
        <time>2020-09-18T10:39:27Z</time>
      </trkpt>
      <trkpt lat="45.8749" lon="4.61044">
        <ele>404</ele>
        <time>2020-09-18T10:39:37Z</time>
      </trkpt>
      <trkpt lat="45.87502" lon="4.60863">
        <ele>397</ele>
        <time>2020-09-18T10:40:07Z</time>
      </trkpt>
      <trkpt lat="45.87506" lon="4.60852">
        <ele>396</ele>
        <time>2020-09-18T10:40:09Z</time>
      </trkpt>
      <trkpt lat="45.87567" lon="4.60884">
        <ele>403</ele>
        <time>2020-09-18T10:40:24Z</time>
      </trkpt>
      <trkpt lat="45.87605" lon="4.60886">
        <ele>405</ele>
        <time>2020-09-18T10:40:33Z</time>
      </trkpt>
      <trkpt lat="45.87649" lon="4.60897">
        <ele>409</ele>
        <time>2020-09-18T10:40:43Z</time>
      </trkpt>
      <trkpt lat="45.87704" lon="4.60893">
        <ele>406</ele>
        <time>2020-09-18T10:40:56Z</time>
      </trkpt>
      <trkpt lat="45.87737" lon="4.609">
        <ele>405</ele>
        <time>2020-09-18T10:41:04Z</time>
      </trkpt>
      <trkpt lat="45.87755" lon="4.60896">
        <ele>402</ele>
        <time>2020-09-18T10:41:08Z</time>
      </trkpt>
      <trkpt lat="45.87799" lon="4.6096">
        <ele>400</ele>
        <time>2020-09-18T10:41:23Z</time>
      </trkpt>
      <trkpt lat="45.87806" lon="4.60984">
        <ele>402</ele>
        <time>2020-09-18T10:41:27Z</time>
      </trkpt>
      <trkpt lat="45.87806" lon="4.61008">
        <ele>403</ele>
        <time>2020-09-18T10:41:31Z</time>
      </trkpt>
      <trkpt lat="45.87797" lon="4.6104">
        <ele>406</ele>
        <time>2020-09-18T10:41:36Z</time>
      </trkpt>
      <trkpt lat="45.8778" lon="4.61071">
        <ele>408</ele>
        <time>2020-09-18T10:41:43Z</time>
      </trkpt>
      <trkpt lat="45.8777" lon="4.61077">
        <ele>409</ele>
        <time>2020-09-18T10:41:45Z</time>
      </trkpt>
      <trkpt lat="45.87741" lon="4.61083">
        <ele>411</ele>
        <time>2020-09-18T10:41:52Z</time>
      </trkpt>
      <trkpt lat="45.87724" lon="4.61078">
        <ele>412</ele>
        <time>2020-09-18T10:41:56Z</time>
      </trkpt>
      <trkpt lat="45.87712" lon="4.61066">
        <ele>413</ele>
        <time>2020-09-18T10:42:00Z</time>
      </trkpt>
      <trkpt lat="45.87728" lon="4.61035">
        <ele>412</ele>
        <time>2020-09-18T10:42:06Z</time>
      </trkpt>
      <trkpt lat="45.87748" lon="4.6101">
        <ele>412</ele>
        <time>2020-09-18T10:42:12Z</time>
      </trkpt>
      <trkpt lat="45.8775" lon="4.60986">
        <ele>411</ele>
        <time>2020-09-18T10:42:16Z</time>
      </trkpt>
      <trkpt lat="45.87745" lon="4.60937">
        <ele>409</ele>
        <time>2020-09-18T10:42:24Z</time>
      </trkpt>
      <trkpt lat="45.87758" lon="4.60908">
        <ele>404</ele>
        <time>2020-09-18T10:42:30Z</time>
      </trkpt>
      <trkpt lat="45.87754" lon="4.60897">
        <ele>403</ele>
        <time>2020-09-18T10:42:32Z</time>
      </trkpt>
      <trkpt lat="45.8773" lon="4.60905">
        <ele>407</ele>
        <time>2020-09-18T10:42:38Z</time>
      </trkpt>
      <trkpt lat="45.87704" lon="4.60896">
        <ele>407</ele>
        <time>2020-09-18T10:42:44Z</time>
      </trkpt>
      <trkpt lat="45.87647" lon="4.60897">
        <ele>409</ele>
        <time>2020-09-18T10:42:57Z</time>
      </trkpt>
      <trkpt lat="45.87562" lon="4.60879">
        <ele>402</ele>
        <time>2020-09-18T10:43:17Z</time>
      </trkpt>
      <trkpt lat="45.87534" lon="4.60867">
        <ele>399</ele>
        <time>2020-09-18T10:43:24Z</time>
      </trkpt>
      <trkpt lat="45.8751" lon="4.60851">
        <ele>396</ele>
        <time>2020-09-18T10:43:30Z</time>
      </trkpt>
      <trkpt lat="45.87489" lon="4.60829">
        <ele>393</ele>
        <time>2020-09-18T10:43:36Z</time>
      </trkpt>
      <trkpt lat="45.87447" lon="4.60807">
        <ele>390</ele>
        <time>2020-09-18T10:43:47Z</time>
      </trkpt>
      <trkpt lat="45.87335" lon="4.60789">
        <ele>387</ele>
        <time>2020-09-18T10:44:13Z</time>
      </trkpt>
      <trkpt lat="45.8733" lon="4.60793">
        <ele>387</ele>
        <time>2020-09-18T10:44:14Z</time>
      </trkpt>
      <trkpt lat="45.8731" lon="4.60852">
        <ele>386</ele>
        <time>2020-09-18T10:44:25Z</time>
      </trkpt>
      <trkpt lat="45.87265" lon="4.61005">
        <ele>380</ele>
        <time>2020-09-18T10:44:52Z</time>
      </trkpt>
      <trkpt lat="45.87256" lon="4.61015">
        <ele>379</ele>
        <time>2020-09-18T10:44:55Z</time>
      </trkpt>
      <trkpt lat="45.87226" lon="4.61026">
        <ele>378</ele>
        <time>2020-09-18T10:45:02Z</time>
      </trkpt>
      <trkpt lat="45.87199" lon="4.61057">
        <ele>379</ele>
        <time>2020-09-18T10:45:10Z</time>
      </trkpt>
      <trkpt lat="45.87196" lon="4.61068">
        <ele>380</ele>
        <time>2020-09-18T10:45:12Z</time>
      </trkpt>
      <trkpt lat="45.872" lon="4.61087">
        <ele>380</ele>
        <time>2020-09-18T10:45:15Z</time>
      </trkpt>
      <trkpt lat="45.87202" lon="4.61163">
        <ele>378</ele>
        <time>2020-09-18T10:45:27Z</time>
      </trkpt>
      <trkpt lat="45.87196" lon="4.61175">
        <ele>377</ele>
        <time>2020-09-18T10:45:30Z</time>
      </trkpt>
      <trkpt lat="45.87188" lon="4.61175">
        <ele>377</ele>
        <time>2020-09-18T10:45:32Z</time>
      </trkpt>
      <trkpt lat="45.87133" lon="4.61154">
        <ele>380</ele>
        <time>2020-09-18T10:45:45Z</time>
      </trkpt>
      <trkpt lat="45.87115" lon="4.61159">
        <ele>380</ele>
        <time>2020-09-18T10:45:49Z</time>
      </trkpt>
      <trkpt lat="45.87091" lon="4.61159">
        <ele>381</ele>
        <time>2020-09-18T10:45:55Z</time>
      </trkpt>
      <trkpt lat="45.87048" lon="4.61182">
        <ele>379</ele>
        <time>2020-09-18T10:46:06Z</time>
      </trkpt>
      <trkpt lat="45.87035" lon="4.61184">
        <ele>379</ele>
        <time>2020-09-18T10:46:09Z</time>
      </trkpt>
      <trkpt lat="45.86982" lon="4.61184">
        <ele>378</ele>
        <time>2020-09-18T10:46:21Z</time>
      </trkpt>
      <trkpt lat="45.86962" lon="4.61181">
        <ele>377</ele>
        <time>2020-09-18T10:46:26Z</time>
      </trkpt>
      <trkpt lat="45.86945" lon="4.61173">
        <ele>376</ele>
        <time>2020-09-18T10:46:30Z</time>
      </trkpt>
      <trkpt lat="45.86941" lon="4.61159">
        <ele>377</ele>
        <time>2020-09-18T10:46:32Z</time>
      </trkpt>
      <trkpt lat="45.86946" lon="4.61129">
        <ele>379</ele>
        <time>2020-09-18T10:46:37Z</time>
      </trkpt>
      <trkpt lat="45.86989" lon="4.61045">
        <ele>387</ele>
        <time>2020-09-18T10:46:54Z</time>
      </trkpt>
      <trkpt lat="45.86997" lon="4.60995">
        <ele>389</ele>
        <time>2020-09-18T10:47:03Z</time>
      </trkpt>
      <trkpt lat="45.8704" lon="4.6093">
        <ele>389</ele>
        <time>2020-09-18T10:47:17Z</time>
      </trkpt>
      <trkpt lat="45.87043" lon="4.6092">
        <ele>389</ele>
        <time>2020-09-18T10:47:19Z</time>
      </trkpt>
      <trkpt lat="45.87039" lon="4.609">
        <ele>390</ele>
        <time>2020-09-18T10:47:22Z</time>
      </trkpt>
      <trkpt lat="45.87018" lon="4.60863">
        <ele>392</ele>
        <time>2020-09-18T10:47:30Z</time>
      </trkpt>
      <trkpt lat="45.86978" lon="4.60834">
        <ele>390</ele>
        <time>2020-09-18T10:47:41Z</time>
      </trkpt>
      <trkpt lat="45.86961" lon="4.60813">
        <ele>387</ele>
        <time>2020-09-18T10:47:46Z</time>
      </trkpt>
      <trkpt lat="45.86943" lon="4.60716">
        <ele>382</ele>
        <time>2020-09-18T10:48:02Z</time>
      </trkpt>
      <trkpt lat="45.86928" lon="4.6067">
        <ele>379</ele>
        <time>2020-09-18T10:48:10Z</time>
      </trkpt>
      <trkpt lat="45.86926" lon="4.60607">
        <ele>378</ele>
        <time>2020-09-18T10:48:21Z</time>
      </trkpt>
      <trkpt lat="45.86922" lon="4.60571">
        <ele>376</ele>
        <time>2020-09-18T10:48:27Z</time>
      </trkpt>
      <trkpt lat="45.86916" lon="4.60552">
        <ele>374</ele>
        <time>2020-09-18T10:48:30Z</time>
      </trkpt>
      <trkpt lat="45.86875" lon="4.60492">
        <ele>369</ele>
        <time>2020-09-18T10:48:44Z</time>
      </trkpt>
      <trkpt lat="45.86866" lon="4.60468">
        <ele>368</ele>
        <time>2020-09-18T10:48:48Z</time>
      </trkpt>
      <trkpt lat="45.86853" lon="4.60449">
        <ele>367</ele>
        <time>2020-09-18T10:48:53Z</time>
      </trkpt>
      <trkpt lat="45.8677" lon="4.60345">
        <ele>367</ele>
        <time>2020-09-18T10:49:18Z</time>
      </trkpt>
      <trkpt lat="45.86751" lon="4.60348">
        <ele>368</ele>
        <time>2020-09-18T10:49:23Z</time>
      </trkpt>
      <trkpt lat="45.86735" lon="4.60357">
        <ele>368</ele>
        <time>2020-09-18T10:49:27Z</time>
      </trkpt>
      <trkpt lat="45.86675" lon="4.60368">
        <ele>369</ele>
        <time>2020-09-18T10:49:41Z</time>
      </trkpt>
      <trkpt lat="45.86638" lon="4.6038">
        <ele>368</ele>
        <time>2020-09-18T10:49:50Z</time>
      </trkpt>
      <trkpt lat="45.86606" lon="4.60384">
        <ele>368</ele>
        <time>2020-09-18T10:49:57Z</time>
      </trkpt>
      <trkpt lat="45.86601" lon="4.60379">
        <ele>368</ele>
        <time>2020-09-18T10:49:59Z</time>
      </trkpt>
      <trkpt lat="45.86594" lon="4.60344">
        <ele>370</ele>
        <time>2020-09-18T10:50:05Z</time>
      </trkpt>
      <trkpt lat="45.86585" lon="4.60341">
        <ele>370</ele>
        <time>2020-09-18T10:50:07Z</time>
      </trkpt>
      <trkpt lat="45.86557" lon="4.60345">
        <ele>369</ele>
        <time>2020-09-18T10:50:13Z</time>
      </trkpt>
      <trkpt lat="45.86551" lon="4.60337">
        <ele>370</ele>
        <time>2020-09-18T10:50:15Z</time>
      </trkpt>
      <trkpt lat="45.86543" lon="4.60227">
        <ele>370</ele>
        <time>2020-09-18T10:50:33Z</time>
      </trkpt>
      <trkpt lat="45.86529" lon="4.60138">
        <ele>365</ele>
        <time>2020-09-18T10:50:48Z</time>
      </trkpt>
      <trkpt lat="45.86525" lon="4.60045">
        <ele>362</ele>
        <time>2020-09-18T10:51:03Z</time>
      </trkpt>
      <trkpt lat="45.86506" lon="4.59945">
        <ele>356</ele>
        <time>2020-09-18T10:51:20Z</time>
      </trkpt>
      <trkpt lat="45.86507" lon="4.59916">
        <ele>354</ele>
        <time>2020-09-18T10:51:25Z</time>
      </trkpt>
      <trkpt lat="45.86528" lon="4.59886">
        <ele>353</ele>
        <time>2020-09-18T10:51:32Z</time>
      </trkpt>
      <trkpt lat="45.86618" lon="4.59814">
        <ele>354</ele>
        <time>2020-09-18T10:51:56Z</time>
      </trkpt>
      <trkpt lat="45.86648" lon="4.59795">
        <ele>355</ele>
        <time>2020-09-18T10:52:03Z</time>
      </trkpt>
      <trkpt lat="45.86666" lon="4.59795">
        <ele>356</ele>
        <time>2020-09-18T10:52:08Z</time>
      </trkpt>
      <trkpt lat="45.86674" lon="4.59805">
        <ele>356</ele>
        <time>2020-09-18T10:52:10Z</time>
      </trkpt>
      <trkpt lat="45.86695" lon="4.59817">
        <ele>356</ele>
        <time>2020-09-18T10:52:15Z</time>
      </trkpt>
      <trkpt lat="45.86746" lon="4.5984">
        <ele>355</ele>
        <time>2020-09-18T10:52:28Z</time>
      </trkpt>
      <trkpt lat="45.8677" lon="4.59846">
        <ele>354</ele>
        <time>2020-09-18T10:52:33Z</time>
      </trkpt>
      <trkpt lat="45.86819" lon="4.5985">
        <ele>352</ele>
        <time>2020-09-18T10:52:45Z</time>
      </trkpt>
      <trkpt lat="45.86883" lon="4.59841">
        <ele>344</ele>
        <time>2020-09-18T10:53:00Z</time>
      </trkpt>
      <trkpt lat="45.86902" lon="4.59844">
        <ele>341</ele>
        <time>2020-09-18T10:53:04Z</time>
      </trkpt>
      <trkpt lat="45.86916" lon="4.59851">
        <ele>340</ele>
        <time>2020-09-18T10:53:08Z</time>
      </trkpt>
      <trkpt lat="45.86972" lon="4.59916">
        <ele>339</ele>
        <time>2020-09-18T10:53:25Z</time>
      </trkpt>
      <trkpt lat="45.87087" lon="4.60115">
        <ele>335</ele>
        <time>2020-09-18T10:54:07Z</time>
      </trkpt>
      <trkpt lat="45.87154" lon="4.60182">
        <ele>335</ele>
        <time>2020-09-18T10:54:26Z</time>
      </trkpt>
      <trkpt lat="45.87161" lon="4.60184">
        <ele>335</ele>
        <time>2020-09-18T10:54:27Z</time>
      </trkpt>
      <trkpt lat="45.87173" lon="4.60177">
        <ele>335</ele>
        <time>2020-09-18T10:54:31Z</time>
      </trkpt>
      <trkpt lat="45.87209" lon="4.60116">
        <ele>331</ele>
        <time>2020-09-18T10:54:44Z</time>
      </trkpt>
      <trkpt lat="45.87253" lon="4.60065">
        <ele>327</ele>
        <time>2020-09-18T10:54:57Z</time>
      </trkpt>
      <trkpt lat="45.87262" lon="4.60043">
        <ele>325</ele>
        <time>2020-09-18T10:55:01Z</time>
      </trkpt>
      <trkpt lat="45.87268" lon="4.60013">
        <ele>323</ele>
        <time>2020-09-18T10:55:06Z</time>
      </trkpt>
      <trkpt lat="45.87255" lon="4.59839">
        <ele>310</ele>
        <time>2020-09-18T10:55:34Z</time>
      </trkpt>
      <trkpt lat="45.87256" lon="4.59802">
        <ele>310</ele>
        <time>2020-09-18T10:55:40Z</time>
      </trkpt>
      <trkpt lat="45.87251" lon="4.5977">
        <ele>311</ele>
        <time>2020-09-18T10:55:46Z</time>
      </trkpt>
      <trkpt lat="45.8726" lon="4.59737">
        <ele>312</ele>
        <time>2020-09-18T10:55:52Z</time>
      </trkpt>
      <trkpt lat="45.87249" lon="4.59709">
        <ele>316</ele>
        <time>2020-09-18T10:55:57Z</time>
      </trkpt>
      <trkpt lat="45.87238" lon="4.59657">
        <ele>321</ele>
        <time>2020-09-18T10:56:06Z</time>
      </trkpt>
      <trkpt lat="45.87219" lon="4.59621">
        <ele>324</ele>
        <time>2020-09-18T10:56:13Z</time>
      </trkpt>
      <trkpt lat="45.87205" lon="4.59611">
        <ele>326</ele>
        <time>2020-09-18T10:56:17Z</time>
      </trkpt>
      <trkpt lat="45.87188" lon="4.59578">
        <ele>328</ele>
        <time>2020-09-18T10:56:23Z</time>
      </trkpt>
      <trkpt lat="45.87175" lon="4.59566">
        <ele>330</ele>
        <time>2020-09-18T10:56:27Z</time>
      </trkpt>
      <trkpt lat="45.8714" lon="4.59519">
        <ele>334</ele>
        <time>2020-09-18T10:56:38Z</time>
      </trkpt>
      <trkpt lat="45.87098" lon="4.59433">
        <ele>339</ele>
        <time>2020-09-18T10:56:55Z</time>
      </trkpt>
      <trkpt lat="45.87055" lon="4.59373">
        <ele>345</ele>
        <time>2020-09-18T10:57:09Z</time>
      </trkpt>
      <trkpt lat="45.87014" lon="4.59327">
        <ele>350</ele>
        <time>2020-09-18T10:57:21Z</time>
      </trkpt>
      <trkpt lat="45.87004" lon="4.59309">
        <ele>352</ele>
        <time>2020-09-18T10:57:25Z</time>
      </trkpt>
      <trkpt lat="45.86993" lon="4.59154">
        <ele>366</ele>
        <time>2020-09-18T10:57:50Z</time>
      </trkpt>
      <trkpt lat="45.86976" lon="4.59121">
        <ele>367</ele>
        <time>2020-09-18T10:57:57Z</time>
      </trkpt>
      <trkpt lat="45.86974" lon="4.59091">
        <ele>368</ele>
        <time>2020-09-18T10:58:02Z</time>
      </trkpt>
      <trkpt lat="45.86905" lon="4.59009">
        <ele>367</ele>
        <time>2020-09-18T10:58:23Z</time>
      </trkpt>
      <trkpt lat="45.86955" lon="4.58913">
        <ele>374</ele>
        <time>2020-09-18T10:58:42Z</time>
      </trkpt>
      <trkpt lat="45.86956" lon="4.589">
        <ele>374</ele>
        <time>2020-09-18T10:58:44Z</time>
      </trkpt>
      <trkpt lat="45.8695" lon="4.58893">
        <ele>375</ele>
        <time>2020-09-18T10:58:46Z</time>
      </trkpt>
      <trkpt lat="45.86928" lon="4.5889">
        <ele>375</ele>
        <time>2020-09-18T10:58:51Z</time>
      </trkpt>
      <trkpt lat="45.86847" lon="4.58853">
        <ele>376</ele>
        <time>2020-09-18T10:59:11Z</time>
      </trkpt>
      <trkpt lat="45.86842" lon="4.58844">
        <ele>376</ele>
        <time>2020-09-18T10:59:13Z</time>
      </trkpt>
      <trkpt lat="45.86852" lon="4.58797">
        <ele>378</ele>
        <time>2020-09-18T10:59:21Z</time>
      </trkpt>
      <trkpt lat="45.8686" lon="4.5873">
        <ele>378</ele>
        <time>2020-09-18T10:59:32Z</time>
      </trkpt>
      <trkpt lat="45.86881" lon="4.58632">
        <ele>374</ele>
        <time>2020-09-18T10:59:49Z</time>
      </trkpt>
      <trkpt lat="45.86885" lon="4.58627">
        <ele>373</ele>
        <time>2020-09-18T10:59:50Z</time>
      </trkpt>
      <trkpt lat="45.86895" lon="4.58625">
        <ele>373</ele>
        <time>2020-09-18T10:59:52Z</time>
      </trkpt>
      <trkpt lat="45.86921" lon="4.58633">
        <ele>374</ele>
        <time>2020-09-18T10:59:59Z</time>
      </trkpt>
      <trkpt lat="45.86931" lon="4.58632">
        <ele>374</ele>
        <time>2020-09-18T11:00:01Z</time>
      </trkpt>
      <trkpt lat="45.86955" lon="4.58595">
        <ele>372</ele>
        <time>2020-09-18T11:00:09Z</time>
      </trkpt>
      <trkpt lat="45.87012" lon="4.58525">
        <ele>374</ele>
        <time>2020-09-18T11:00:27Z</time>
      </trkpt>
      <trkpt lat="45.87048" lon="4.58489">
        <ele>378</ele>
        <time>2020-09-18T11:00:37Z</time>
      </trkpt>
      <trkpt lat="45.87054" lon="4.58488">
        <ele>378</ele>
        <time>2020-09-18T11:00:38Z</time>
      </trkpt>
      <trkpt lat="45.87048" lon="4.58474">
        <ele>379</ele>
        <time>2020-09-18T11:00:41Z</time>
      </trkpt>
      <trkpt lat="45.87031" lon="4.58458">
        <ele>379</ele>
        <time>2020-09-18T11:00:46Z</time>
      </trkpt>
      <trkpt lat="45.86947" lon="4.58349">
        <ele>382</ele>
        <time>2020-09-18T11:01:12Z</time>
      </trkpt>
      <trkpt lat="45.86928" lon="4.58321">
        <ele>382</ele>
        <time>2020-09-18T11:01:19Z</time>
      </trkpt>
      <trkpt lat="45.86922" lon="4.58304">
        <ele>383</ele>
        <time>2020-09-18T11:01:22Z</time>
      </trkpt>
      <trkpt lat="45.86922" lon="4.5829">
        <ele>384</ele>
        <time>2020-09-18T11:01:24Z</time>
      </trkpt>
      <trkpt lat="45.86936" lon="4.58273">
        <ele>388</ele>
        <time>2020-09-18T11:01:28Z</time>
      </trkpt>
      <trkpt lat="45.86937" lon="4.58259">
        <ele>389</ele>
        <time>2020-09-18T11:01:31Z</time>
      </trkpt>
      <trkpt lat="45.86933" lon="4.58245">
        <ele>390</ele>
        <time>2020-09-18T11:01:33Z</time>
      </trkpt>
      <trkpt lat="45.86921" lon="4.58235">
        <ele>389</ele>
        <time>2020-09-18T11:01:36Z</time>
      </trkpt>
      <trkpt lat="45.8692" lon="4.58224">
        <ele>389</ele>
        <time>2020-09-18T11:01:38Z</time>
      </trkpt>
      <trkpt lat="45.86923" lon="4.58216">
        <ele>391</ele>
        <time>2020-09-18T11:01:40Z</time>
      </trkpt>
      <trkpt lat="45.86934" lon="4.58209">
        <ele>393</ele>
        <time>2020-09-18T11:01:42Z</time>
      </trkpt>
      <trkpt lat="45.86956" lon="4.58202">
        <ele>397</ele>
        <time>2020-09-18T11:01:48Z</time>
      </trkpt>
      <trkpt lat="45.87014" lon="4.58252">
        <ele>402</ele>
        <time>2020-09-18T11:02:03Z</time>
      </trkpt>
      <trkpt lat="45.86955" lon="4.58205">
        <ele>397</ele>
        <time>2020-09-18T11:02:19Z</time>
      </trkpt>
      <trkpt lat="45.86954" lon="4.58201">
        <ele>397</ele>
        <time>2020-09-18T11:02:20Z</time>
      </trkpt>
      <trkpt lat="45.86963" lon="4.58199">
        <ele>399</ele>
        <time>2020-09-18T11:02:22Z</time>
      </trkpt>
      <trkpt lat="45.86965" lon="4.58193">
        <ele>400</ele>
        <time>2020-09-18T11:02:23Z</time>
      </trkpt>
      <trkpt lat="45.86943" lon="4.58096">
        <ele>398</ele>
        <time>2020-09-18T11:02:40Z</time>
      </trkpt>
      <trkpt lat="45.86933" lon="4.58069">
        <ele>395</ele>
        <time>2020-09-18T11:02:45Z</time>
      </trkpt>
      <trkpt lat="45.86915" lon="4.58059">
        <ele>391</ele>
        <time>2020-09-18T11:02:49Z</time>
      </trkpt>
      <trkpt lat="45.8691" lon="4.58051">
        <ele>391</ele>
        <time>2020-09-18T11:02:51Z</time>
      </trkpt>
      <trkpt lat="45.86909" lon="4.5801">
        <ele>390</ele>
        <time>2020-09-18T11:02:58Z</time>
      </trkpt>
      <trkpt lat="45.86886" lon="4.5785">
        <ele>375</ele>
        <time>2020-09-18T11:03:24Z</time>
      </trkpt>
      <trkpt lat="45.86902" lon="4.57823">
        <ele>374</ele>
        <time>2020-09-18T11:03:30Z</time>
      </trkpt>
      <trkpt lat="45.86903" lon="4.57814">
        <ele>374</ele>
        <time>2020-09-18T11:03:31Z</time>
      </trkpt>
      <trkpt lat="45.86936" lon="4.57803">
        <ele>375</ele>
        <time>2020-09-18T11:03:39Z</time>
      </trkpt>
      <trkpt lat="45.86947" lon="4.57809">
        <ele>376</ele>
        <time>2020-09-18T11:03:42Z</time>
      </trkpt>
      <trkpt lat="45.86992" lon="4.57858">
        <ele>383</ele>
        <time>2020-09-18T11:03:55Z</time>
      </trkpt>
      <trkpt lat="45.87048" lon="4.57911">
        <ele>392</ele>
        <time>2020-09-18T11:04:11Z</time>
      </trkpt>
      <trkpt lat="45.87105" lon="4.57951">
        <ele>399</ele>
        <time>2020-09-18T11:04:26Z</time>
      </trkpt>
      <trkpt lat="45.87158" lon="4.5798">
        <ele>401</ele>
        <time>2020-09-18T11:04:39Z</time>
      </trkpt>
      <trkpt lat="45.87177" lon="4.57996">
        <ele>402</ele>
        <time>2020-09-18T11:04:44Z</time>
      </trkpt>
      <trkpt lat="45.87239" lon="4.5802">
        <ele>404</ele>
        <time>2020-09-18T11:04:59Z</time>
      </trkpt>
      <trkpt lat="45.87278" lon="4.58025">
        <ele>403</ele>
        <time>2020-09-18T11:05:08Z</time>
      </trkpt>
      <trkpt lat="45.87352" lon="4.58064">
        <ele>405</ele>
        <time>2020-09-18T11:05:27Z</time>
      </trkpt>
      <trkpt lat="45.87362" lon="4.58065">
        <ele>405</ele>
        <time>2020-09-18T11:05:29Z</time>
      </trkpt>
      <trkpt lat="45.87406" lon="4.58085">
        <ele>406</ele>
        <time>2020-09-18T11:05:40Z</time>
      </trkpt>
      <trkpt lat="45.87451" lon="4.58116">
        <ele>405</ele>
        <time>2020-09-18T11:05:51Z</time>
      </trkpt>
      <trkpt lat="45.87502" lon="4.58163">
        <ele>403</ele>
        <time>2020-09-18T11:06:06Z</time>
      </trkpt>
      <trkpt lat="45.87532" lon="4.58197">
        <ele>401</ele>
        <time>2020-09-18T11:06:14Z</time>
      </trkpt>
      <trkpt lat="45.87649" lon="4.58229">
        <ele>389</ele>
        <time>2020-09-18T11:06:42Z</time>
      </trkpt>
      <trkpt lat="45.87808" lon="4.58321">
        <ele>384</ele>
        <time>2020-09-18T11:07:22Z</time>
      </trkpt>
      <trkpt lat="45.87827" lon="4.58324">
        <ele>383</ele>
        <time>2020-09-18T11:07:27Z</time>
      </trkpt>
      <trkpt lat="45.87867" lon="4.58313">
        <ele>381</ele>
        <time>2020-09-18T11:07:36Z</time>
      </trkpt>
      <trkpt lat="45.87925" lon="4.58315">
        <ele>380</ele>
        <time>2020-09-18T11:07:50Z</time>
      </trkpt>
      <trkpt lat="45.8798" lon="4.5834">
        <ele>374</ele>
        <time>2020-09-18T11:08:03Z</time>
      </trkpt>
      <trkpt lat="45.88071" lon="4.58373">
        <ele>363</ele>
        <time>2020-09-18T11:08:25Z</time>
      </trkpt>
      <trkpt lat="45.88157" lon="4.58418">
        <ele>352</ele>
        <time>2020-09-18T11:08:47Z</time>
      </trkpt>
      <trkpt lat="45.88178" lon="4.58419">
        <ele>349</ele>
        <time>2020-09-18T11:08:52Z</time>
      </trkpt>
      <trkpt lat="45.88222" lon="4.58407">
        <ele>345</ele>
        <time>2020-09-18T11:09:02Z</time>
      </trkpt>
      <trkpt lat="45.88257" lon="4.58407">
        <ele>342</ele>
        <time>2020-09-18T11:09:10Z</time>
      </trkpt>
      <trkpt lat="45.88268" lon="4.58409">
        <ele>341</ele>
        <time>2020-09-18T11:09:13Z</time>
      </trkpt>
      <trkpt lat="45.88318" lon="4.58434">
        <ele>337</ele>
        <time>2020-09-18T11:09:25Z</time>
      </trkpt>
      <trkpt lat="45.88341" lon="4.58439">
        <ele>334</ele>
        <time>2020-09-18T11:09:31Z</time>
      </trkpt>
      <trkpt lat="45.88355" lon="4.58435">
        <ele>332</ele>
        <time>2020-09-18T11:09:34Z</time>
      </trkpt>
      <trkpt lat="45.88381" lon="4.58454">
        <ele>325</ele>
        <time>2020-09-18T11:09:41Z</time>
      </trkpt>
      <trkpt lat="45.88392" lon="4.58457">
        <ele>323</ele>
        <time>2020-09-18T11:09:43Z</time>
      </trkpt>
      <trkpt lat="45.88403" lon="4.58446">
        <ele>322</ele>
        <time>2020-09-18T11:09:46Z</time>
      </trkpt>
      <trkpt lat="45.88416" lon="4.58406">
        <ele>320</ele>
        <time>2020-09-18T11:09:54Z</time>
      </trkpt>
      <trkpt lat="45.88419" lon="4.5839">
        <ele>319</ele>
        <time>2020-09-18T11:09:56Z</time>
      </trkpt>
      <trkpt lat="45.88416" lon="4.58365">
        <ele>320</ele>
        <time>2020-09-18T11:10:00Z</time>
      </trkpt>
      <trkpt lat="45.88418" lon="4.58377">
        <ele>319</ele>
        <time>2020-09-18T11:10:02Z</time>
      </trkpt>
      <trkpt lat="45.88414" lon="4.58405">
        <ele>320</ele>
        <time>2020-09-18T11:10:07Z</time>
      </trkpt>
      <trkpt lat="45.88406" lon="4.58444">
        <ele>321</ele>
        <time>2020-09-18T11:10:14Z</time>
      </trkpt>
      <trkpt lat="45.884" lon="4.58455">
        <ele>322</ele>
        <time>2020-09-18T11:10:16Z</time>
      </trkpt>
      <trkpt lat="45.88392" lon="4.58456">
        <ele>323</ele>
        <time>2020-09-18T11:10:18Z</time>
      </trkpt>
      <trkpt lat="45.8835" lon="4.58436">
        <ele>332</ele>
        <time>2020-09-18T11:10:28Z</time>
      </trkpt>
      <trkpt lat="45.88346" lon="4.58435">
        <ele>333</ele>
        <time>2020-09-18T11:10:29Z</time>
      </trkpt>
      <trkpt lat="45.88344" lon="4.5844">
        <ele>333</ele>
        <time>2020-09-18T11:10:30Z</time>
      </trkpt>
      <trkpt lat="45.88402" lon="4.5847">
        <ele>321</ele>
        <time>2020-09-18T11:10:44Z</time>
      </trkpt>
      <trkpt lat="45.88443" lon="4.58518">
        <ele>314</ele>
        <time>2020-09-18T11:10:57Z</time>
      </trkpt>
      <trkpt lat="45.88453" lon="4.58526">
        <ele>313</ele>
        <time>2020-09-18T11:10:59Z</time>
      </trkpt>
      <trkpt lat="45.88463" lon="4.58527">
        <ele>311</ele>
        <time>2020-09-18T11:11:02Z</time>
      </trkpt>
      <trkpt lat="45.88476" lon="4.58535">
        <ele>309</ele>
        <time>2020-09-18T11:11:05Z</time>
      </trkpt>
      <trkpt lat="45.88526" lon="4.58585">
        <ele>299</ele>
        <time>2020-09-18T11:11:19Z</time>
      </trkpt>
      <trkpt lat="45.8855" lon="4.58625">
        <ele>294</ele>
        <time>2020-09-18T11:11:28Z</time>
      </trkpt>
      <trkpt lat="45.88615" lon="4.5866">
        <ele>288</ele>
        <time>2020-09-18T11:11:44Z</time>
      </trkpt>
      <trkpt lat="45.88632" lon="4.58655">
        <ele>288</ele>
        <time>2020-09-18T11:11:48Z</time>
      </trkpt>
      <trkpt lat="45.8868" lon="4.58626">
        <ele>287</ele>
        <time>2020-09-18T11:12:00Z</time>
      </trkpt>
      <trkpt lat="45.88701" lon="4.58607">
        <ele>286</ele>
        <time>2020-09-18T11:12:06Z</time>
      </trkpt>
      <trkpt lat="45.88736" lon="4.58487">
        <ele>288</ele>
        <time>2020-09-18T11:12:27Z</time>
      </trkpt>
      <trkpt lat="45.8872" lon="4.58448">
        <ele>287</ele>
        <time>2020-09-18T11:12:35Z</time>
      </trkpt>
      <trkpt lat="45.88709" lon="4.58435">
        <ele>287</ele>
        <time>2020-09-18T11:12:38Z</time>
      </trkpt>
      <trkpt lat="45.88706" lon="4.58416">
        <ele>287</ele>
        <time>2020-09-18T11:12:41Z</time>
      </trkpt>
      <trkpt lat="45.88718" lon="4.58382">
        <ele>286</ele>
        <time>2020-09-18T11:12:47Z</time>
      </trkpt>
      <trkpt lat="45.88729" lon="4.58373">
        <ele>285</ele>
        <time>2020-09-18T11:12:50Z</time>
      </trkpt>
      <trkpt lat="45.88737" lon="4.58373">
        <ele>285</ele>
        <time>2020-09-18T11:12:52Z</time>
      </trkpt>
      <trkpt lat="45.88749" lon="4.58366">
        <ele>284</ele>
        <time>2020-09-18T11:12:55Z</time>
      </trkpt>
      <trkpt lat="45.88761" lon="4.58353">
        <ele>283</ele>
        <time>2020-09-18T11:12:59Z</time>
      </trkpt>
      <trkpt lat="45.88758" lon="4.58345">
        <ele>283</ele>
        <time>2020-09-18T11:13:00Z</time>
      </trkpt>
      <trkpt lat="45.88754" lon="4.5836">
        <ele>284</ele>
        <time>2020-09-18T11:13:03Z</time>
      </trkpt>
      <trkpt lat="45.88743" lon="4.58376">
        <ele>285</ele>
        <time>2020-09-18T11:13:06Z</time>
      </trkpt>
      <trkpt lat="45.88748" lon="4.58394">
        <ele>285</ele>
        <time>2020-09-18T11:13:10Z</time>
      </trkpt>
      <trkpt lat="45.88754" lon="4.58401">
        <ele>285</ele>
        <time>2020-09-18T11:13:11Z</time>
      </trkpt>
      <trkpt lat="45.88826" lon="4.58381">
        <ele>284</ele>
        <time>2020-09-18T11:13:29Z</time>
      </trkpt>
      <trkpt lat="45.88891" lon="4.58375">
        <ele>278</ele>
        <time>2020-09-18T11:13:44Z</time>
      </trkpt>
      <trkpt lat="45.88974" lon="4.58324">
        <ele>268</ele>
        <time>2020-09-18T11:14:05Z</time>
      </trkpt>
      <trkpt lat="45.88992" lon="4.5832">
        <ele>268</ele>
        <time>2020-09-18T11:14:09Z</time>
      </trkpt>
      <trkpt lat="45.89005" lon="4.58322">
        <ele>267</ele>
        <time>2020-09-18T11:14:12Z</time>
      </trkpt>
      <trkpt lat="45.89008" lon="4.58319">
        <ele>268</ele>
        <time>2020-09-18T11:14:13Z</time>
      </trkpt>
      <trkpt lat="45.89005" lon="4.58316">
        <ele>268</ele>
        <time>2020-09-18T11:14:14Z</time>
      </trkpt>
      <trkpt lat="45.89054" lon="4.58347">
        <ele>268</ele>
        <time>2020-09-18T11:14:26Z</time>
      </trkpt>
      <trkpt lat="45.89084" lon="4.58376">
        <ele>267</ele>
        <time>2020-09-18T11:14:35Z</time>
      </trkpt>
      <trkpt lat="45.8912" lon="4.58439">
        <ele>267</ele>
        <time>2020-09-18T11:14:48Z</time>
      </trkpt>
      <trkpt lat="45.89151" lon="4.58514">
        <ele>268</ele>
        <time>2020-09-18T11:15:02Z</time>
      </trkpt>
      <trkpt lat="45.89165" lon="4.5853">
        <ele>267</ele>
        <time>2020-09-18T11:15:06Z</time>
      </trkpt>
      <trkpt lat="45.89217" lon="4.58568">
        <ele>263</ele>
        <time>2020-09-18T11:15:20Z</time>
      </trkpt>
      <trkpt lat="45.89253" lon="4.58578">
        <ele>260</ele>
        <time>2020-09-18T11:15:29Z</time>
      </trkpt>
      <trkpt lat="45.89275" lon="4.58591">
        <ele>260</ele>
        <time>2020-09-18T11:15:34Z</time>
      </trkpt>
      <trkpt lat="45.89288" lon="4.58593">
        <ele>260</ele>
        <time>2020-09-18T11:15:37Z</time>
      </trkpt>
      <trkpt lat="45.89292" lon="4.5859">
        <ele>260</ele>
        <time>2020-09-18T11:15:38Z</time>
      </trkpt>
      <trkpt lat="45.89272" lon="4.58586">
        <ele>260</ele>
        <time>2020-09-18T11:15:43Z</time>
      </trkpt>
      <trkpt lat="45.89252" lon="4.58569">
        <ele>261</ele>
        <time>2020-09-18T11:15:48Z</time>
      </trkpt>
      <trkpt lat="45.89246" lon="4.58549">
        <ele>265</ele>
        <time>2020-09-18T11:15:52Z</time>
      </trkpt>
      <trkpt lat="45.89231" lon="4.58532">
        <ele>268</ele>
        <time>2020-09-18T11:15:56Z</time>
      </trkpt>
      <trkpt lat="45.89199" lon="4.58507">
        <ele>269</ele>
        <time>2020-09-18T11:16:05Z</time>
      </trkpt>
      <trkpt lat="45.89183" lon="4.58486">
        <ele>270</ele>
        <time>2020-09-18T11:16:10Z</time>
      </trkpt>
      <trkpt lat="45.89176" lon="4.58466">
        <ele>270</ele>
        <time>2020-09-18T11:16:14Z</time>
      </trkpt>
      <trkpt lat="45.89177" lon="4.58458">
        <ele>271</ele>
        <time>2020-09-18T11:16:15Z</time>
      </trkpt>
      <trkpt lat="45.89183" lon="4.58453">
        <ele>272</ele>
        <time>2020-09-18T11:16:17Z</time>
      </trkpt>
      <trkpt lat="45.89212" lon="4.58464">
        <ele>273</ele>
        <time>2020-09-18T11:16:24Z</time>
      </trkpt>
      <trkpt lat="45.89218" lon="4.58462">
        <ele>274</ele>
        <time>2020-09-18T11:16:25Z</time>
      </trkpt>
      <trkpt lat="45.89218" lon="4.58448">
        <ele>275</ele>
        <time>2020-09-18T11:16:27Z</time>
      </trkpt>
      <trkpt lat="45.89204" lon="4.5843">
        <ele>275</ele>
        <time>2020-09-18T11:16:32Z</time>
      </trkpt>
      <trkpt lat="45.89202" lon="4.58421">
        <ele>275</ele>
        <time>2020-09-18T11:16:33Z</time>
      </trkpt>
      <trkpt lat="45.89209" lon="4.58409">
        <ele>276</ele>
        <time>2020-09-18T11:16:36Z</time>
      </trkpt>
      <trkpt lat="45.89238" lon="4.58383">
        <ele>280</ele>
        <time>2020-09-18T11:16:44Z</time>
      </trkpt>
      <trkpt lat="45.8924" lon="4.58371">
        <ele>280</ele>
        <time>2020-09-18T11:16:46Z</time>
      </trkpt>
      <trkpt lat="45.89157" lon="4.58276">
        <ele>281</ele>
        <time>2020-09-18T11:17:11Z</time>
      </trkpt>
      <trkpt lat="45.89089" lon="4.58214">
        <ele>281</ele>
        <time>2020-09-18T11:17:29Z</time>
      </trkpt>
      <trkpt lat="45.89064" lon="4.58184">
        <ele>282</ele>
        <time>2020-09-18T11:17:37Z</time>
      </trkpt>
      <trkpt lat="45.89058" lon="4.58159">
        <ele>284</ele>
        <time>2020-09-18T11:17:41Z</time>
      </trkpt>
      <trkpt lat="45.89026" lon="4.58131">
        <ele>284</ele>
        <time>2020-09-18T11:17:50Z</time>
      </trkpt>
      <trkpt lat="45.89014" lon="4.58113">
        <ele>284</ele>
        <time>2020-09-18T11:17:54Z</time>
      </trkpt>
      <trkpt lat="45.88991" lon="4.58093">
        <ele>285</ele>
        <time>2020-09-18T11:18:00Z</time>
      </trkpt>
      <trkpt lat="45.88964" lon="4.58059">
        <ele>286</ele>
        <time>2020-09-18T11:18:09Z</time>
      </trkpt>
      <trkpt lat="45.88933" lon="4.58044">
        <ele>287</ele>
        <time>2020-09-18T11:18:16Z</time>
      </trkpt>
      <trkpt lat="45.88905" lon="4.58023">
        <ele>287</ele>
        <time>2020-09-18T11:18:24Z</time>
      </trkpt>
      <trkpt lat="45.88848" lon="4.57959">
        <ele>286</ele>
        <time>2020-09-18T11:18:41Z</time>
      </trkpt>
      <trkpt lat="45.88839" lon="4.57945">
        <ele>286</ele>
        <time>2020-09-18T11:18:44Z</time>
      </trkpt>
      <trkpt lat="45.88835" lon="4.57928">
        <ele>287</ele>
        <time>2020-09-18T11:18:47Z</time>
      </trkpt>
      <trkpt lat="45.88862" lon="4.57893">
        <ele>289</ele>
        <time>2020-09-18T11:18:55Z</time>
      </trkpt>
      <trkpt lat="45.88862" lon="4.5788">
        <ele>289</ele>
        <time>2020-09-18T11:18:57Z</time>
      </trkpt>
      <trkpt lat="45.88854" lon="4.57868">
        <ele>290</ele>
        <time>2020-09-18T11:19:00Z</time>
      </trkpt>
      <trkpt lat="45.88833" lon="4.5785">
        <ele>290</ele>
        <time>2020-09-18T11:19:06Z</time>
      </trkpt>
      <trkpt lat="45.88812" lon="4.57806">
        <ele>291</ele>
        <time>2020-09-18T11:19:14Z</time>
      </trkpt>
      <trkpt lat="45.88749" lon="4.57722">
        <ele>293</ele>
        <time>2020-09-18T11:19:34Z</time>
      </trkpt>
      <trkpt lat="45.88675" lon="4.57661">
        <ele>297</ele>
        <time>2020-09-18T11:19:54Z</time>
      </trkpt>
      <trkpt lat="45.88653" lon="4.57634">
        <ele>298</ele>
        <time>2020-09-18T11:20:01Z</time>
      </trkpt>
      <trkpt lat="45.88639" lon="4.57607">
        <ele>300</ele>
        <time>2020-09-18T11:20:07Z</time>
      </trkpt>
      <trkpt lat="45.8859" lon="4.57567">
        <ele>299</ele>
        <time>2020-09-18T11:20:20Z</time>
      </trkpt>
      <trkpt lat="45.88574" lon="4.57533">
        <ele>301</ele>
        <time>2020-09-18T11:20:26Z</time>
      </trkpt>
      <trkpt lat="45.8848" lon="4.57386">
        <ele>317</ele>
        <time>2020-09-18T11:20:59Z</time>
      </trkpt>
      <trkpt lat="45.88474" lon="4.57369">
        <ele>319</ele>
        <time>2020-09-18T11:21:02Z</time>
      </trkpt>
      <trkpt lat="45.88449" lon="4.57329">
        <ele>323</ele>
        <time>2020-09-18T11:21:11Z</time>
      </trkpt>
      <trkpt lat="45.88423" lon="4.57191">
        <ele>332</ele>
        <time>2020-09-18T11:21:34Z</time>
      </trkpt>
      <trkpt lat="45.8841" lon="4.57152">
        <ele>333</ele>
        <time>2020-09-18T11:21:41Z</time>
      </trkpt>
      <trkpt lat="45.88354" lon="4.57041">
        <ele>338</ele>
        <time>2020-09-18T11:22:03Z</time>
      </trkpt>
      <trkpt lat="45.8832" lon="4.56988">
        <ele>338</ele>
        <time>2020-09-18T11:22:15Z</time>
      </trkpt>
      <trkpt lat="45.883" lon="4.56967">
        <ele>339</ele>
        <time>2020-09-18T11:22:21Z</time>
      </trkpt>
      <trkpt lat="45.88288" lon="4.56962">
        <ele>339</ele>
        <time>2020-09-18T11:22:24Z</time>
      </trkpt>
      <trkpt lat="45.88268" lon="4.56969">
        <ele>342</ele>
        <time>2020-09-18T11:22:28Z</time>
      </trkpt>
      <trkpt lat="45.88232" lon="4.56994">
        <ele>346</ele>
        <time>2020-09-18T11:22:38Z</time>
      </trkpt>
      <trkpt lat="45.88226" lon="4.57006">
        <ele>346</ele>
        <time>2020-09-18T11:22:40Z</time>
      </trkpt>
      <trkpt lat="45.88216" lon="4.57014">
        <ele>346</ele>
        <time>2020-09-18T11:22:43Z</time>
      </trkpt>
      <trkpt lat="45.88205" lon="4.57019">
        <ele>346</ele>
        <time>2020-09-18T11:22:46Z</time>
      </trkpt>
      <trkpt lat="45.88189" lon="4.57018">
        <ele>346</ele>
        <time>2020-09-18T11:22:49Z</time>
      </trkpt>
      <trkpt lat="45.88168" lon="4.57003">
        <ele>348</ele>
        <time>2020-09-18T11:22:55Z</time>
      </trkpt>
      <trkpt lat="45.88151" lon="4.57004">
        <ele>349</ele>
        <time>2020-09-18T11:22:59Z</time>
      </trkpt>
      <trkpt lat="45.88093" lon="4.57039">
        <ele>353</ele>
        <time>2020-09-18T11:23:13Z</time>
      </trkpt>
      <trkpt lat="45.88092" lon="4.57042">
        <ele>353</ele>
        <time>2020-09-18T11:23:14Z</time>
      </trkpt>
      <trkpt lat="45.881" lon="4.5704">
        <ele>352</ele>
        <time>2020-09-18T11:23:16Z</time>
      </trkpt>
      <trkpt lat="45.88132" lon="4.57016">
        <ele>351</ele>
        <time>2020-09-18T11:23:24Z</time>
      </trkpt>
      <trkpt lat="45.88137" lon="4.57019">
        <ele>350</ele>
        <time>2020-09-18T11:23:26Z</time>
      </trkpt>
      <trkpt lat="45.88135" lon="4.57027">
        <ele>350</ele>
        <time>2020-09-18T11:23:27Z</time>
      </trkpt>
      <trkpt lat="45.88091" lon="4.57082">
        <ele>349</ele>
        <time>2020-09-18T11:23:41Z</time>
      </trkpt>
      <trkpt lat="45.88031" lon="4.57125">
        <ele>355</ele>
        <time>2020-09-18T11:23:56Z</time>
      </trkpt>
      <trkpt lat="45.88017" lon="4.5714">
        <ele>356</ele>
        <time>2020-09-18T11:24:00Z</time>
      </trkpt>
      <trkpt lat="45.88011" lon="4.57182">
        <ele>355</ele>
        <time>2020-09-18T11:24:07Z</time>
      </trkpt>
      <trkpt lat="45.87996" lon="4.57235">
        <ele>360</ele>
        <time>2020-09-18T11:24:17Z</time>
      </trkpt>
      <trkpt lat="45.87979" lon="4.57271">
        <ele>363</ele>
        <time>2020-09-18T11:24:24Z</time>
      </trkpt>
      <trkpt lat="45.87973" lon="4.57268">
        <ele>364</ele>
        <time>2020-09-18T11:24:25Z</time>
      </trkpt>
      <trkpt lat="45.87967" lon="4.57226">
        <ele>367</ele>
        <time>2020-09-18T11:24:32Z</time>
      </trkpt>
      <trkpt lat="45.87959" lon="4.57221">
        <ele>369</ele>
        <time>2020-09-18T11:24:34Z</time>
      </trkpt>
      <trkpt lat="45.87953" lon="4.57232">
        <ele>370</ele>
        <time>2020-09-18T11:24:36Z</time>
      </trkpt>
      <trkpt lat="45.87948" lon="4.57261">
        <ele>371</ele>
        <time>2020-09-18T11:24:41Z</time>
      </trkpt>
      <trkpt lat="45.87942" lon="4.57273">
        <ele>371</ele>
        <time>2020-09-18T11:24:44Z</time>
      </trkpt>
      <trkpt lat="45.87935" lon="4.57277">
        <ele>372</ele>
        <time>2020-09-18T11:24:45Z</time>
      </trkpt>
      <trkpt lat="45.87899" lon="4.57261">
        <ele>381</ele>
        <time>2020-09-18T11:24:54Z</time>
      </trkpt>
      <trkpt lat="45.87873" lon="4.57255">
        <ele>387</ele>
        <time>2020-09-18T11:25:00Z</time>
      </trkpt>
      <trkpt lat="45.87744" lon="4.57255">
        <ele>401</ele>
        <time>2020-09-18T11:25:30Z</time>
      </trkpt>
      <trkpt lat="45.87694" lon="4.57271">
        <ele>400</ele>
        <time>2020-09-18T11:25:42Z</time>
      </trkpt>
      <trkpt lat="45.87642" lon="4.57303">
        <ele>399</ele>
        <time>2020-09-18T11:25:56Z</time>
      </trkpt>
      <trkpt lat="45.87621" lon="4.57308">
        <ele>400</ele>
        <time>2020-09-18T11:26:01Z</time>
      </trkpt>
      <trkpt lat="45.87596" lon="4.57305">
        <ele>401</ele>
        <time>2020-09-18T11:26:06Z</time>
      </trkpt>
      <trkpt lat="45.87582" lon="4.57291">
        <ele>403</ele>
        <time>2020-09-18T11:26:10Z</time>
      </trkpt>
      <trkpt lat="45.87578" lon="4.57224">
        <ele>407</ele>
        <time>2020-09-18T11:26:21Z</time>
      </trkpt>
      <trkpt lat="45.87565" lon="4.57145">
        <ele>411</ele>
        <time>2020-09-18T11:26:35Z</time>
      </trkpt>
      <trkpt lat="45.87557" lon="4.57126">
        <ele>411</ele>
        <time>2020-09-18T11:26:38Z</time>
      </trkpt>
      <trkpt lat="45.87517" lon="4.57062">
        <ele>409</ele>
        <time>2020-09-18T11:26:52Z</time>
      </trkpt>
      <trkpt lat="45.87507" lon="4.57031">
        <ele>408</ele>
        <time>2020-09-18T11:26:58Z</time>
      </trkpt>
      <trkpt lat="45.87507" lon="4.57004">
        <ele>408</ele>
        <time>2020-09-18T11:27:02Z</time>
      </trkpt>
      <trkpt lat="45.87498" lon="4.56985">
        <ele>407</ele>
        <time>2020-09-18T11:27:06Z</time>
      </trkpt>
      <trkpt lat="45.87465" lon="4.56969">
        <ele>405</ele>
        <time>2020-09-18T11:27:14Z</time>
      </trkpt>
      <trkpt lat="45.87385" lon="4.56956">
        <ele>401</ele>
        <time>2020-09-18T11:27:33Z</time>
      </trkpt>
      <trkpt lat="45.87369" lon="4.56967">
        <ele>401</ele>
        <time>2020-09-18T11:27:37Z</time>
      </trkpt>
      <trkpt lat="45.87354" lon="4.56988">
        <ele>400</ele>
        <time>2020-09-18T11:27:42Z</time>
      </trkpt>
      <trkpt lat="45.87344" lon="4.5699">
        <ele>400</ele>
        <time>2020-09-18T11:27:44Z</time>
      </trkpt>
      <trkpt lat="45.87323" lon="4.5697">
        <ele>398</ele>
        <time>2020-09-18T11:27:50Z</time>
      </trkpt>
      <trkpt lat="45.87278" lon="4.56881">
        <ele>392</ele>
        <time>2020-09-18T11:28:08Z</time>
      </trkpt>
      <trkpt lat="45.8727" lon="4.56876">
        <ele>391</ele>
        <time>2020-09-18T11:28:10Z</time>
      </trkpt>
      <trkpt lat="45.87248" lon="4.56888">
        <ele>389</ele>
        <time>2020-09-18T11:28:16Z</time>
      </trkpt>
      <trkpt lat="45.8722" lon="4.56929">
        <ele>386</ele>
        <time>2020-09-18T11:28:25Z</time>
      </trkpt>
      <trkpt lat="45.8721" lon="4.56937">
        <ele>385</ele>
        <time>2020-09-18T11:28:28Z</time>
      </trkpt>
      <trkpt lat="45.87183" lon="4.56943">
        <ele>382</ele>
        <time>2020-09-18T11:28:34Z</time>
      </trkpt>
      <trkpt lat="45.87138" lon="4.56942">
        <ele>378</ele>
        <time>2020-09-18T11:28:44Z</time>
      </trkpt>
      <trkpt lat="45.87136" lon="4.56908">
        <ele>378</ele>
        <time>2020-09-18T11:28:50Z</time>
      </trkpt>
      <trkpt lat="45.87146" lon="4.56817">
        <ele>376</ele>
        <time>2020-09-18T11:29:05Z</time>
      </trkpt>
      <trkpt lat="45.87126" lon="4.56723">
        <ele>371</ele>
        <time>2020-09-18T11:29:21Z</time>
      </trkpt>
      <trkpt lat="45.8712" lon="4.56721">
        <ele>370</ele>
        <time>2020-09-18T11:29:22Z</time>
      </trkpt>
      <trkpt lat="45.87043" lon="4.56774">
        <ele>367</ele>
        <time>2020-09-18T11:29:42Z</time>
      </trkpt>
      <trkpt lat="45.87037" lon="4.56774">
        <ele>366</ele>
        <time>2020-09-18T11:29:44Z</time>
      </trkpt>
      <trkpt lat="45.87029" lon="4.56715">
        <ele>362</ele>
        <time>2020-09-18T11:29:53Z</time>
      </trkpt>
      <trkpt lat="45.8703" lon="4.5665">
        <ele>358</ele>
        <time>2020-09-18T11:30:04Z</time>
      </trkpt>
      <trkpt lat="45.87038" lon="4.56602">
        <ele>357</ele>
        <time>2020-09-18T11:30:12Z</time>
      </trkpt>
      <trkpt lat="45.87036" lon="4.56593">
        <ele>356</ele>
        <time>2020-09-18T11:30:14Z</time>
      </trkpt>
      <trkpt lat="45.87029" lon="4.56576">
        <ele>355</ele>
        <time>2020-09-18T11:30:17Z</time>
      </trkpt>
      <trkpt lat="45.87012" lon="4.56552">
        <ele>353</ele>
        <time>2020-09-18T11:30:22Z</time>
      </trkpt>
      <trkpt lat="45.86996" lon="4.56544">
        <ele>352</ele>
        <time>2020-09-18T11:30:26Z</time>
      </trkpt>
      <trkpt lat="45.86977" lon="4.56544">
        <ele>350</ele>
        <time>2020-09-18T11:30:31Z</time>
      </trkpt>
      <trkpt lat="45.86963" lon="4.56536">
        <ele>349</ele>
        <time>2020-09-18T11:30:34Z</time>
      </trkpt>
      <trkpt lat="45.86958" lon="4.56499">
        <ele>350</ele>
        <time>2020-09-18T11:30:40Z</time>
      </trkpt>
      <trkpt lat="45.8691" lon="4.56376">
        <ele>351</ele>
        <time>2020-09-18T11:31:03Z</time>
      </trkpt>
      <trkpt lat="45.86905" lon="4.56354">
        <ele>352</ele>
        <time>2020-09-18T11:31:07Z</time>
      </trkpt>
      <trkpt lat="45.86954" lon="4.56091">
        <ele>360</ele>
        <time>2020-09-18T11:31:51Z</time>
      </trkpt>
      <trkpt lat="45.86973" lon="4.56056">
        <ele>361</ele>
        <time>2020-09-18T11:31:59Z</time>
      </trkpt>
      <trkpt lat="45.87006" lon="4.56014">
        <ele>362</ele>
        <time>2020-09-18T11:32:09Z</time>
      </trkpt>
      <trkpt lat="45.86999" lon="4.5597">
        <ele>360</ele>
        <time>2020-09-18T11:32:16Z</time>
      </trkpt>
      <trkpt lat="45.87" lon="4.55944">
        <ele>358</ele>
        <time>2020-09-18T11:32:20Z</time>
      </trkpt>
      <trkpt lat="45.87029" lon="4.55793">
        <ele>357</ele>
        <time>2020-09-18T11:32:46Z</time>
      </trkpt>
      <trkpt lat="45.8703" lon="4.55784">
        <ele>356</ele>
        <time>2020-09-18T11:32:47Z</time>
      </trkpt>
      <trkpt lat="45.87026" lon="4.55778">
        <ele>356</ele>
        <time>2020-09-18T11:32:49Z</time>
      </trkpt>
      <trkpt lat="45.87027" lon="4.55798">
        <ele>357</ele>
        <time>2020-09-18T11:32:52Z</time>
      </trkpt>
      <trkpt lat="45.87037" lon="4.558">
        <ele>357</ele>
        <time>2020-09-18T11:32:54Z</time>
      </trkpt>
      <trkpt lat="45.87048" lon="4.55781">
        <ele>356</ele>
        <time>2020-09-18T11:32:58Z</time>
      </trkpt>
      <trkpt lat="45.87049" lon="4.5572">
        <ele>355</ele>
        <time>2020-09-18T11:33:08Z</time>
      </trkpt>
      <trkpt lat="45.87057" lon="4.55697">
        <ele>354</ele>
        <time>2020-09-18T11:33:13Z</time>
      </trkpt>
      <trkpt lat="45.8707" lon="4.55701">
        <ele>354</ele>
        <time>2020-09-18T11:33:16Z</time>
      </trkpt>
      <trkpt lat="45.8709" lon="4.55726">
        <ele>355</ele>
        <time>2020-09-18T11:33:22Z</time>
      </trkpt>
      <trkpt lat="45.87096" lon="4.55725">
        <ele>355</ele>
        <time>2020-09-18T11:33:23Z</time>
      </trkpt>
      <trkpt lat="45.87072" lon="4.55686">
        <ele>354</ele>
        <time>2020-09-18T11:33:32Z</time>
      </trkpt>
      <trkpt lat="45.87036" lon="4.55643">
        <ele>352</ele>
        <time>2020-09-18T11:33:43Z</time>
      </trkpt>
      <trkpt lat="45.87004" lon="4.55624">
        <ele>351</ele>
        <time>2020-09-18T11:33:51Z</time>
      </trkpt>
      <trkpt lat="45.86978" lon="4.55614">
        <ele>351</ele>
        <time>2020-09-18T11:33:57Z</time>
      </trkpt>
      <trkpt lat="45.86964" lon="4.55614">
        <ele>351</ele>
        <time>2020-09-18T11:34:00Z</time>
      </trkpt>
      <trkpt lat="45.86953" lon="4.55621">
        <ele>351</ele>
        <time>2020-09-18T11:34:03Z</time>
      </trkpt>
      <trkpt lat="45.86942" lon="4.55637">
        <ele>352</ele>
        <time>2020-09-18T11:34:07Z</time>
      </trkpt>
      <trkpt lat="45.86935" lon="4.55659">
        <ele>352</ele>
        <time>2020-09-18T11:34:11Z</time>
      </trkpt>
      <trkpt lat="45.86936" lon="4.55685">
        <ele>353</ele>
        <time>2020-09-18T11:34:15Z</time>
      </trkpt>
      <trkpt lat="45.86944" lon="4.55706">
        <ele>353</ele>
        <time>2020-09-18T11:34:19Z</time>
      </trkpt>
      <trkpt lat="45.86941" lon="4.55736">
        <ele>353</ele>
        <time>2020-09-18T11:34:24Z</time>
      </trkpt>
      <trkpt lat="45.86889" lon="4.55959">
        <ele>355</ele>
        <time>2020-09-18T11:35:02Z</time>
      </trkpt>
      <trkpt lat="45.86864" lon="4.56118">
        <ele>353</ele>
        <time>2020-09-18T11:35:28Z</time>
      </trkpt>
      <trkpt lat="45.86857" lon="4.56123">
        <ele>352</ele>
        <time>2020-09-18T11:35:30Z</time>
      </trkpt>
      <trkpt lat="45.86828" lon="4.56121">
        <ele>349</ele>
        <time>2020-09-18T11:35:37Z</time>
      </trkpt>
      <trkpt lat="45.86785" lon="4.56143">
        <ele>344</ele>
        <time>2020-09-18T11:35:48Z</time>
      </trkpt>
      <trkpt lat="45.86721" lon="4.56186">
        <ele>336</ele>
        <time>2020-09-18T11:36:04Z</time>
      </trkpt>
      <trkpt lat="45.86677" lon="4.56189">
        <ele>331</ele>
        <time>2020-09-18T11:36:15Z</time>
      </trkpt>
      <trkpt lat="45.86622" lon="4.56204">
        <ele>325</ele>
        <time>2020-09-18T11:36:28Z</time>
      </trkpt>
      <trkpt lat="45.86573" lon="4.56239">
        <ele>320</ele>
        <time>2020-09-18T11:36:40Z</time>
      </trkpt>
      <trkpt lat="45.86537" lon="4.5622">
        <ele>321</ele>
        <time>2020-09-18T11:36:49Z</time>
      </trkpt>
      <trkpt lat="45.86504" lon="4.56218">
        <ele>321</ele>
        <time>2020-09-18T11:36:57Z</time>
      </trkpt>
      <trkpt lat="45.86326" lon="4.56256">
        <ele>337</ele>
        <time>2020-09-18T11:37:39Z</time>
      </trkpt>
      <trkpt lat="45.86281" lon="4.56251">
        <ele>339</ele>
        <time>2020-09-18T11:37:50Z</time>
      </trkpt>
      <trkpt lat="45.86227" lon="4.56264">
        <ele>340</ele>
        <time>2020-09-18T11:38:02Z</time>
      </trkpt>
      <trkpt lat="45.86207" lon="4.56276">
        <ele>341</ele>
        <time>2020-09-18T11:38:07Z</time>
      </trkpt>
      <trkpt lat="45.86136" lon="4.56303">
        <ele>342</ele>
        <time>2020-09-18T11:38:25Z</time>
      </trkpt>
      <trkpt lat="45.86" lon="4.5634">
        <ele>339</ele>
        <time>2020-09-18T11:38:57Z</time>
      </trkpt>
      <trkpt lat="45.86019" lon="4.56445">
        <ele>343</ele>
        <time>2020-09-18T11:39:15Z</time>
      </trkpt>
      <trkpt lat="45.86009" lon="4.56548">
        <ele>345</ele>
        <time>2020-09-18T11:39:31Z</time>
      </trkpt>
      <trkpt lat="45.86011" lon="4.5656">
        <ele>345</ele>
        <time>2020-09-18T11:39:34Z</time>
      </trkpt>
      <trkpt lat="45.86021" lon="4.56574">
        <ele>347</ele>
        <time>2020-09-18T11:39:37Z</time>
      </trkpt>
      <trkpt lat="45.8604" lon="4.56583">
        <ele>348</ele>
        <time>2020-09-18T11:39:41Z</time>
      </trkpt>
      <trkpt lat="45.86058" lon="4.56603">
        <ele>350</ele>
        <time>2020-09-18T11:39:47Z</time>
      </trkpt>
      <trkpt lat="45.86076" lon="4.56615">
        <ele>352</ele>
        <time>2020-09-18T11:39:51Z</time>
      </trkpt>
      <trkpt lat="45.86092" lon="4.5662">
        <ele>353</ele>
        <time>2020-09-18T11:39:55Z</time>
      </trkpt>
      <trkpt lat="45.86109" lon="4.5665">
        <ele>353</ele>
        <time>2020-09-18T11:40:01Z</time>
      </trkpt>
      <trkpt lat="45.86132" lon="4.56676">
        <ele>354</ele>
        <time>2020-09-18T11:40:08Z</time>
      </trkpt>
      <trkpt lat="45.86162" lon="4.56726">
        <ele>356</ele>
        <time>2020-09-18T11:40:19Z</time>
      </trkpt>
      <trkpt lat="45.86198" lon="4.56772">
        <ele>357</ele>
        <time>2020-09-18T11:40:30Z</time>
      </trkpt>
      <trkpt lat="45.86205" lon="4.56794">
        <ele>358</ele>
        <time>2020-09-18T11:40:34Z</time>
      </trkpt>
      <trkpt lat="45.8614" lon="4.56877">
        <ele>356</ele>
        <time>2020-09-18T11:40:55Z</time>
      </trkpt>
      <trkpt lat="45.86062" lon="4.56966">
        <ele>358</ele>
        <time>2020-09-18T11:41:18Z</time>
      </trkpt>
      <trkpt lat="45.85984" lon="4.57067">
        <ele>364</ele>
        <time>2020-09-18T11:41:42Z</time>
      </trkpt>
      <trkpt lat="45.85961" lon="4.57082">
        <ele>365</ele>
        <time>2020-09-18T11:41:48Z</time>
      </trkpt>
      <trkpt lat="45.85961" lon="4.57097">
        <ele>365</ele>
        <time>2020-09-18T11:41:51Z</time>
      </trkpt>
      <trkpt lat="45.85969" lon="4.57119">
        <ele>366</ele>
        <time>2020-09-18T11:41:55Z</time>
      </trkpt>
      <trkpt lat="45.85986" lon="4.57148">
        <ele>366</ele>
        <time>2020-09-18T11:42:01Z</time>
      </trkpt>
      <trkpt lat="45.86008" lon="4.57174">
        <ele>367</ele>
        <time>2020-09-18T11:42:08Z</time>
      </trkpt>
      <trkpt lat="45.86012" lon="4.57183">
        <ele>367</ele>
        <time>2020-09-18T11:42:09Z</time>
      </trkpt>
      <trkpt lat="45.86011" lon="4.57195">
        <ele>368</ele>
        <time>2020-09-18T11:42:11Z</time>
      </trkpt>
      <trkpt lat="45.85995" lon="4.57216">
        <ele>368</ele>
        <time>2020-09-18T11:42:16Z</time>
      </trkpt>
      <trkpt lat="45.85965" lon="4.57269">
        <ele>369</ele>
        <time>2020-09-18T11:42:27Z</time>
      </trkpt>
      <trkpt lat="45.85939" lon="4.57326">
        <ele>368</ele>
        <time>2020-09-18T11:42:39Z</time>
      </trkpt>
      <trkpt lat="45.85942" lon="4.57348">
        <ele>368</ele>
        <time>2020-09-18T11:42:42Z</time>
      </trkpt>
      <trkpt lat="45.85939" lon="4.57369">
        <ele>368</ele>
        <time>2020-09-18T11:42:46Z</time>
      </trkpt>
      <trkpt lat="45.85916" lon="4.57416">
        <ele>368</ele>
        <time>2020-09-18T11:42:55Z</time>
      </trkpt>
      <trkpt lat="45.85891" lon="4.57493">
        <ele>369</ele>
        <time>2020-09-18T11:43:09Z</time>
      </trkpt>
      <trkpt lat="45.85898" lon="4.57505">
        <ele>370</ele>
        <time>2020-09-18T11:43:11Z</time>
      </trkpt>
      <trkpt lat="45.85932" lon="4.57519">
        <ele>370</ele>
        <time>2020-09-18T11:43:20Z</time>
      </trkpt>
      <trkpt lat="45.85937" lon="4.57532">
        <ele>370</ele>
        <time>2020-09-18T11:43:22Z</time>
      </trkpt>
      <trkpt lat="45.85913" lon="4.57615">
        <ele>368</ele>
        <time>2020-09-18T11:43:37Z</time>
      </trkpt>
      <trkpt lat="45.85874" lon="4.57787">
        <ele>362</ele>
        <time>2020-09-18T11:44:06Z</time>
      </trkpt>
      <trkpt lat="45.85873" lon="4.57827">
        <ele>362</ele>
        <time>2020-09-18T11:44:13Z</time>
      </trkpt>
      <trkpt lat="45.85897" lon="4.57908">
        <ele>361</ele>
        <time>2020-09-18T11:44:27Z</time>
      </trkpt>
      <trkpt lat="45.85901" lon="4.57914">
        <ele>361</ele>
        <time>2020-09-18T11:44:28Z</time>
      </trkpt>
      <trkpt lat="45.85907" lon="4.57915">
        <ele>361</ele>
        <time>2020-09-18T11:44:30Z</time>
      </trkpt>
      <trkpt lat="45.85919" lon="4.5791">
        <ele>361</ele>
        <time>2020-09-18T11:44:33Z</time>
      </trkpt>
      <trkpt lat="45.8593" lon="4.57898">
        <ele>361</ele>
        <time>2020-09-18T11:44:36Z</time>
      </trkpt>
      <trkpt lat="45.85943" lon="4.57901">
        <ele>361</ele>
        <time>2020-09-18T11:44:39Z</time>
      </trkpt>
      <trkpt lat="45.85952" lon="4.57954">
        <ele>361</ele>
        <time>2020-09-18T11:44:48Z</time>
      </trkpt>
      <trkpt lat="45.85954" lon="4.57948">
        <ele>361</ele>
        <time>2020-09-18T11:44:49Z</time>
      </trkpt>
      <trkpt lat="45.85943" lon="4.57892">
        <ele>361</ele>
        <time>2020-09-18T11:44:58Z</time>
      </trkpt>
      <trkpt lat="45.85954" lon="4.57871">
        <ele>361</ele>
        <time>2020-09-18T11:45:03Z</time>
      </trkpt>
      <trkpt lat="45.85973" lon="4.57852">
        <ele>360</ele>
        <time>2020-09-18T11:45:08Z</time>
      </trkpt>
      <trkpt lat="45.8598" lon="4.5785">
        <ele>360</ele>
        <time>2020-09-18T11:45:10Z</time>
      </trkpt>
      <trkpt lat="45.85989" lon="4.57859">
        <ele>360</ele>
        <time>2020-09-18T11:45:12Z</time>
      </trkpt>
      <trkpt lat="45.8601" lon="4.58035">
        <ele>358</ele>
        <time>2020-09-18T11:45:41Z</time>
      </trkpt>
      <trkpt lat="45.86021" lon="4.5825">
        <ele>352</ele>
        <time>2020-09-18T11:46:16Z</time>
      </trkpt>
      <trkpt lat="45.86013" lon="4.58466">
        <ele>347</ele>
        <time>2020-09-18T11:46:51Z</time>
      </trkpt>
      <trkpt lat="45.8602" lon="4.58639">
        <ele>338</ele>
        <time>2020-09-18T11:47:20Z</time>
      </trkpt>
      <trkpt lat="45.86008" lon="4.58759">
        <ele>335</ele>
        <time>2020-09-18T11:47:39Z</time>
      </trkpt>
      <trkpt lat="45.85995" lon="4.5882">
        <ele>333</ele>
        <time>2020-09-18T11:47:50Z</time>
      </trkpt>
      <trkpt lat="45.85997" lon="4.58913">
        <ele>331</ele>
        <time>2020-09-18T11:48:05Z</time>
      </trkpt>
      <trkpt lat="45.85994" lon="4.58946">
        <ele>331</ele>
        <time>2020-09-18T11:48:10Z</time>
      </trkpt>
      <trkpt lat="45.8599" lon="4.58983">
        <ele>330</ele>
        <time>2020-09-18T11:48:16Z</time>
      </trkpt>
      <trkpt lat="45.85983" lon="4.59003">
        <ele>330</ele>
        <time>2020-09-18T11:48:20Z</time>
      </trkpt>
      <trkpt lat="45.85973" lon="4.59016">
        <ele>330</ele>
        <time>2020-09-18T11:48:23Z</time>
      </trkpt>
      <trkpt lat="45.85948" lon="4.59033">
        <ele>330</ele>
        <time>2020-09-18T11:48:30Z</time>
      </trkpt>
      <trkpt lat="45.85939" lon="4.59044">
        <ele>330</ele>
        <time>2020-09-18T11:48:32Z</time>
      </trkpt>
      <trkpt lat="45.85978" lon="4.5907">
        <ele>329</ele>
        <time>2020-09-18T11:48:42Z</time>
      </trkpt>
      <trkpt lat="45.8598" lon="4.59105">
        <ele>327</ele>
        <time>2020-09-18T11:48:48Z</time>
      </trkpt>
      <trkpt lat="45.85962" lon="4.59192">
        <ele>323</ele>
        <time>2020-09-18T11:49:03Z</time>
      </trkpt>
      <trkpt lat="45.8594" lon="4.59244">
        <ele>321</ele>
        <time>2020-09-18T11:49:13Z</time>
      </trkpt>
      <trkpt lat="45.85932" lon="4.59276">
        <ele>319</ele>
        <time>2020-09-18T11:49:18Z</time>
      </trkpt>
      <trkpt lat="45.85925" lon="4.59281">
        <ele>319</ele>
        <time>2020-09-18T11:49:20Z</time>
      </trkpt>
      <trkpt lat="45.85913" lon="4.59278">
        <ele>319</ele>
        <time>2020-09-18T11:49:23Z</time>
      </trkpt>
      <trkpt lat="45.85905" lon="4.5927">
        <ele>320</ele>
        <time>2020-09-18T11:49:25Z</time>
      </trkpt>
      <trkpt lat="45.85908" lon="4.59264">
        <ele>320</ele>
        <time>2020-09-18T11:49:26Z</time>
      </trkpt>
      <trkpt lat="45.85919" lon="4.59268">
        <ele>320</ele>
        <time>2020-09-18T11:49:29Z</time>
      </trkpt>
      <trkpt lat="45.85934" lon="4.59285">
        <ele>318</ele>
        <time>2020-09-18T11:49:34Z</time>
      </trkpt>
      <trkpt lat="45.85935" lon="4.59293">
        <ele>318</ele>
        <time>2020-09-18T11:49:35Z</time>
      </trkpt>
      <trkpt lat="45.85928" lon="4.59293">
        <ele>318</ele>
        <time>2020-09-18T11:49:37Z</time>
      </trkpt>
      <trkpt lat="45.85868" lon="4.59264">
        <ele>320</ele>
        <time>2020-09-18T11:49:51Z</time>
      </trkpt>
      <trkpt lat="45.85838" lon="4.59233">
        <ele>323</ele>
        <time>2020-09-18T11:50:00Z</time>
      </trkpt>
      <trkpt lat="45.85821" lon="4.59198">
        <ele>326</ele>
        <time>2020-09-18T11:50:07Z</time>
      </trkpt>
      <trkpt lat="45.85805" lon="4.59179">
        <ele>327</ele>
        <time>2020-09-18T11:50:12Z</time>
      </trkpt>
      <trkpt lat="45.85787" lon="4.59147">
        <ele>329</ele>
        <time>2020-09-18T11:50:18Z</time>
      </trkpt>
      <trkpt lat="45.85729" lon="4.59032">
        <ele>339</ele>
        <time>2020-09-18T11:50:42Z</time>
      </trkpt>
      <trkpt lat="45.85725" lon="4.59003">
        <ele>342</ele>
        <time>2020-09-18T11:50:46Z</time>
      </trkpt>
      <trkpt lat="45.85727" lon="4.58981">
        <ele>343</ele>
        <time>2020-09-18T11:50:50Z</time>
      </trkpt>
      <trkpt lat="45.85735" lon="4.58963">
        <ele>344</ele>
        <time>2020-09-18T11:50:53Z</time>
      </trkpt>
      <trkpt lat="45.85702" lon="4.58877">
        <ele>350</ele>
        <time>2020-09-18T11:51:09Z</time>
      </trkpt>
      <trkpt lat="45.85627" lon="4.58771">
        <ele>362</ele>
        <time>2020-09-18T11:51:34Z</time>
      </trkpt>
      <trkpt lat="45.85594" lon="4.58705">
        <ele>369</ele>
        <time>2020-09-18T11:51:47Z</time>
      </trkpt>
      <trkpt lat="45.85575" lon="4.58685">
        <ele>369</ele>
        <time>2020-09-18T11:51:53Z</time>
      </trkpt>
      <trkpt lat="45.85555" lon="4.58654">
        <ele>369</ele>
        <time>2020-09-18T11:52:00Z</time>
      </trkpt>
      <trkpt lat="45.85532" lon="4.58577">
        <ele>371</ele>
        <time>2020-09-18T11:52:13Z</time>
      </trkpt>
      <trkpt lat="45.85498" lon="4.58496">
        <ele>376</ele>
        <time>2020-09-18T11:52:29Z</time>
      </trkpt>
      <trkpt lat="45.8548" lon="4.58465">
        <ele>372</ele>
        <time>2020-09-18T11:52:35Z</time>
      </trkpt>
      <trkpt lat="45.85466" lon="4.58456">
        <ele>369</ele>
        <time>2020-09-18T11:52:39Z</time>
      </trkpt>
      <trkpt lat="45.85431" lon="4.58451">
        <ele>361</ele>
        <time>2020-09-18T11:52:47Z</time>
      </trkpt>
      <trkpt lat="45.85391" lon="4.58439">
        <ele>355</ele>
        <time>2020-09-18T11:52:56Z</time>
      </trkpt>
      <trkpt lat="45.85363" lon="4.58436">
        <ele>352</ele>
        <time>2020-09-18T11:53:03Z</time>
      </trkpt>
      <trkpt lat="45.85329" lon="4.58438">
        <ele>348</ele>
        <time>2020-09-18T11:53:11Z</time>
      </trkpt>
      <trkpt lat="45.85292" lon="4.58432">
        <ele>345</ele>
        <time>2020-09-18T11:53:20Z</time>
      </trkpt>
      <trkpt lat="45.85271" lon="4.58408">
        <ele>345</ele>
        <time>2020-09-18T11:53:26Z</time>
      </trkpt>
      <trkpt lat="45.85266" lon="4.58392">
        <ele>344</ele>
        <time>2020-09-18T11:53:29Z</time>
      </trkpt>
      <trkpt lat="45.85272" lon="4.58389">
        <ele>345</ele>
        <time>2020-09-18T11:53:30Z</time>
      </trkpt>
      <trkpt lat="45.85275" lon="4.58392">
        <ele>345</ele>
        <time>2020-09-18T11:53:31Z</time>
      </trkpt>
      <trkpt lat="45.8528" lon="4.58409">
        <ele>345</ele>
        <time>2020-09-18T11:53:34Z</time>
      </trkpt>
    </trkseg>
  </trk>
</gpx>